Observation data for Amarillo 7 South Southeast on 11/07/2019      Previous  Date       Current Mesonet Observations  Soil Data  Daily Summary Page  Observations in Plain Language
KAM1 070600Z 01019KT 01/00 A3028 RMK A01 T00090002  RH  095%=      5-min Rain = 0
KAM1 070601Z 01018KT 01/00 A3028 RMK A01 T00100003  RH  095%=      5-min Rain = 0
KAM1 070602Z 01019G24KT 01/00 A3028 RMK A01 T00100003  RH  095%=      5-min Rain = 0
KAM1 070603Z 01013KT 01/00 A3029 RMK A01 T00100003  RH  096%=      5-min Rain = 0
KAM1 070604Z 01014G19KT 01/00 A3029 RMK A01 T00100004  RH  096%=      5-min Rain = 0
KAM1 070605Z 01020G25KT 01/00 A3029 RMK A01 T00100004  RH  096%=      5-min Rain = 0
KAM1 070606Z 01017G24KT 01/00 A3029 RMK A01 T00100004  RH  096%=      5-min Rain = 0
KAM1 070607Z 01019G26KT 01/00 A3029 RMK A01 T00090004  RH  096%=      5-min Rain = 0
KAM1 070608Z 01023KT 01/00 A3029 RMK A01 T00090004  RH  097%=      5-min Rain = 0
KAM1 070609Z 01021G27KT 01/00 A3029 RMK A01 T00080003  RH  097%=      5-min Rain = 0
KAM1 070610Z 01020G25KT 01/00 A3029 RMK A01 T00080003  RH  097%=      5-min Rain = 0
KAM1 070611Z 01024KT 01/00 A3029 RMK A01 T00070003  RH  097%=      5-min Rain = 0
KAM1 070612Z 01025KT 01/00 A3029 RMK A01 T00070003  RH  097%=      5-min Rain = 0
KAM1 070613Z 01023KT 01/00 A3029 RMK A01 T00070003  RH  097%=      5-min Rain = 0
KAM1 070614Z 01023KT 01/00 A3028 RMK A01 T00060003  RH  098%=      5-min Rain = 0
KAM1 070615Z 02022G27KT 01/00 A3028 RMK A01 T00060003  RH  098%=      5-min Rain = 0
KAM1 070616Z 01019G25KT 01/00 A3027 RMK A01 T00060004  RH  098%=      5-min Rain = 0
KAM1 070617Z 01021G27KT 01/00 A3028 RMK A01 T00060004  RH  099%=      5-min Rain = 0
KAM1 070618Z 01022KT 01/00 A3027 RMK A01 T00060004  RH  099%=      5-min Rain = 0
KAM1 070619Z 01019KT 01/00 A3027 RMK A01 T00060004  RH  099%=      5-min Rain = 0
KAM1 070620Z 01023G30KT 01/00 A3027 RMK A01 T00060004  RH  099%=      5-min Rain = 0
KAM1 070621Z 01022KT 01/00 A3027 RMK A01 T00060004  RH  099%=      5-min Rain = 0
KAM1 070622Z 02020KT 01/00 A3028 RMK A01 T00060004  RH  099%=      5-min Rain = 0
KAM1 070623Z 01024G30KT 01/00 A3028 RMK A01 T00060004  RH  098%=      5-min Rain = 0
KAM1 070624Z 01021G28KT 01/00 A3028 RMK A01 T00060003  RH  098%=      5-min Rain = 0
KAM1 070625Z 01018G23KT 01/00 A3028 RMK A01 T00060003  RH  098%=      5-min Rain = 0
KAM1 070626Z 01019G25KT 01/00 A3028 RMK A01 T00060003  RH  098%=      5-min Rain = 0
KAM1 070627Z 00021KT 01/00 A3028 RMK A01 T00060003  RH  097%=      5-min Rain = 0
KAM1 070628Z 01022G28KT 01/00 A3028 RMK A01 T00060001  RH  097%=      5-min Rain = 0
KAM1 070629Z 00021G26KT 01/00 A3028 RMK A01 T00060001  RH  097%=      5-min Rain = 0
KAM1 070630Z 36024KT 01/00 A3028 RMK A01 T00050000  RH  097%=      5-min Rain = 0
KAM1 070631Z 00023G28KT 00/00 A3029 RMK A01 T000400-0  RH  097%=      5-min Rain = 0
KAM1 070632Z 00021G28KT 00/00 A3029 RMK A01 T000400-0  RH  097%=      5-min Rain = 0
KAM1 070633Z 00022G29KT 00/00 A3029 RMK A01 T00040001  RH  098%=      5-min Rain = 0
KAM1 070634Z 00016KT 00/00 A3029 RMK A01 T00040001  RH  098%=      5-min Rain = 0
KAM1 070635Z 36020G27KT 00/00 A3029 RMK A01 T00040001  RH  098%=      5-min Rain = 0
KAM1 070636Z 00018KT 00/00 A303 RMK A01 T00040001  RH  098%=      5-min Rain = 0
KAM1 070637Z 00017G25KT 00/00 A303 RMK A01 T00030001  RH  098%=      5-min Rain = 0
KAM1 070638Z 01020G27KT 00/00 A303 RMK A01 T00040001  RH  098%=      5-min Rain = 0
KAM1 070639Z 01027G32KT 00/00 A303 RMK A01 T00030001  RH  098%=      5-min Rain = 0
KAM1 070640Z 01025G32KT 00/00 A303 RMK A01 T00020001  RH  099%=      5-min Rain = 0
KAM1 070641Z 01026G31KT 00/00 A303 RMK A01 T00020001  RH  100%=      5-min Rain = 0
KAM1 070642Z 01025KT 00/00 A303 RMK A01 T00010001  RH  100%=      5-min Rain = 0
KAM1 070643Z 01024G30KT 00/00 A3029 RMK A01 T00010001  RH  100%=      5-min Rain = 0
KAM1 070644Z 01024G30KT 00/00 A3029 RMK A01 T00010001  RH  100%=      5-min Rain = 0
KAM1 070645Z 02021KT 00/00 A3029 RMK A01 T00000000  RH  100%=      5-min Rain = 0
KAM1 070646Z 01021G28KT 00/00 A3029 RMK A01 T00000000  RH  100%=      5-min Rain = 0
KAM1 070647Z 01023G31KT 00/00 A3029 RMK A01 T00000000  RH  100%=      5-min Rain = 0
KAM1 070648Z 02018G25KT 00/00 A3029 RMK A01 T00000000  RH  100%=      5-min Rain = 0
KAM1 070649Z 02023G31KT 00/00 A3029 RMK A01 T00010000  RH  100%=      5-min Rain = 0
KAM1 070650Z 01025KT 00/00 A303 RMK A01 T000000-0  RH  100%=      5-min Rain = 0
KAM1 070651Z 01023G30KT 00/00 A303 RMK A01 T00-000-0  RH  100%=      5-min Rain = 0
KAM1 070652Z 01021G31KT 00/00 A303 RMK A01 T00-000-0  RH  100%=      5-min Rain = 0
KAM1 070653Z 01022G27KT 00/00 A3031 RMK A01 T00-000-0  RH  100%=      5-min Rain = 0
KAM1 070654Z 00024KT 00/00 A3031 RMK A01 T00-000-0  RH  100%=      5-min Rain = 0
KAM1 070655Z 01022G27KT 00/00 A3032 RMK A01 T00-000-0  RH  100%=      5-min Rain = 0
KAM1 070656Z 01021G28KT 00/00 A3032 RMK A01 T00-000-0  RH  100%=      5-min Rain = 0
KAM1 070657Z 01022KT 00/00 A3032 RMK A01 T00-000-0  RH  100%=      5-min Rain = 0
KAM1 070658Z 01019G25KT 00/00 A3032 RMK A01 T00-000-0  RH  100%=      5-min Rain = 0
KAM1 070659Z 01019G25KT 00/00 A3032 RMK A01 T00-000-0  RH  100%=      5-min Rain = 0
KAM1 070700Z 00022KT 00/00 A3032 RMK A01 T00-000-0  RH  100%=      5-min Rain = 0
KAM1 070701Z 00019G24KT 00/00 A3032 RMK A01 T000000-0  RH  100%=      5-min Rain = 0
KAM1 070702Z 01017KT 00/00 A3032 RMK A01 T00-000-0  RH  100%=      5-min Rain = 0
KAM1 070703Z 01021G27KT 00/00 A3032 RMK A01 T00-000-0  RH  100%=      5-min Rain = 0
KAM1 070704Z 01019KT 00/00 A3032 RMK A01 T00-000-0  RH  100%=      5-min Rain = 0
KAM1 070705Z 01020G25KT 00/00 A3032 RMK A01 T00-000-0  RH  100%=      5-min Rain = 0
KAM1 070706Z 01020G25KT 00/00 A3032 RMK A01 T00-000-0  RH  100%=      5-min Rain = 0
KAM1 070707Z 00019KT 00/00 A3032 RMK A01 T00-000-0  RH  100%=      5-min Rain = 0
KAM1 070708Z 01019G26KT 00/00 A3032 RMK A01 T00-000-0  RH  100%=      5-min Rain = 0
KAM1 070709Z 01021KT 00/00 A3032 RMK A01 T00-000-0  RH  100%=      5-min Rain = 0
KAM1 070710Z 01019G25KT M00/M00 A3033 RMK A01 T10011001  RH  100%=      5-min Rain = 0
KAM1 070711Z 00022G29KT M00/M00 A3033 RMK A01 T10011001  RH  100%=      5-min Rain = 0
KAM1 070712Z 01025KT M00/M00 A3033 RMK A01 T10021002  RH  100%=      5-min Rain = 0
KAM1 070713Z 01022G27KT M00/M00 A3033 RMK A01 T10021002  RH  100%=      5-min Rain = 0
KAM1 070714Z 00019KT M00/M00 A3033 RMK A01 T10021002  RH  100%=      5-min Rain = 0
KAM1 070715Z 01019KT M00/M00 A3033 RMK A01 T10021002  RH  100%=      5-min Rain = 0
KAM1 070716Z 00020G25KT M00/M00 A3033 RMK A01 T10021002  RH  100%=      5-min Rain = 0
KAM1 070717Z 01018KT M00/M00 A3033 RMK A01 T10021002  RH  100%=      5-min Rain = 0
KAM1 070718Z 01014KT M00/M00 A3033 RMK A01 T10021002  RH  100%=      5-min Rain = 0
KAM1 070719Z 00017G24KT M00/M00 A3033 RMK A01 T10021002  RH  100%=      5-min Rain = 0
KAM1 070720Z 00019G24KT M00/M00 A3033 RMK A01 T10021002  RH  100%=      5-min Rain = 0
KAM1 070721Z 01018G24KT M00/M00 A3033 RMK A01 T10021002  RH  100%=      5-min Rain = 0
KAM1 070722Z 01017KT M00/M00 A3033 RMK A01 T10021002  RH  100%=      5-min Rain = 0
KAM1 070723Z 01018KT M00/M00 A3033 RMK A01 T10021002  RH  100%=      5-min Rain = 0
KAM1 070724Z 00020G26KT M00/M00 A3033 RMK A01 T10021003  RH  100%=      5-min Rain = 0
KAM1 070725Z 36020KT M00/M00 A3033 RMK A01 T10031003  RH  100%=      5-min Rain = 0
KAM1 070726Z 00019KT M00/M00 A3033 RMK A01 T10041004  RH  100%=      5-min Rain = 0
KAM1 070727Z 00021KT M00/M00 A3033 RMK A01 T10041004  RH  100%=      5-min Rain = 0
KAM1 070728Z 00020G27KT M00/M00 A3034 RMK A01 T10041004  RH  100%=      5-min Rain = 0
KAM1 070729Z 01024G29KT M00/M00 A3034 RMK A01 T10041004  RH  100%=      5-min Rain = 0
KAM1 070730Z 00025G31KT M00/M00 A3034 RMK A01 T10041004  RH  100%=      5-min Rain = 0
KAM1 070731Z 36018G24KT M00/M00 A3034 RMK A01 T10041004  RH  100%=      5-min Rain = 0
KAM1 070732Z 36016KT M00/M00 A3034 RMK A01 T10041004  RH  100%=      5-min Rain = 0
KAM1 070733Z 00021KT M00/M00 A3034 RMK A01 T10041004  RH  100%=      5-min Rain = 0
KAM1 070734Z 01022KT M00/M00 A3034 RMK A01 T10041004  RH  100%=      5-min Rain = 0
KAM1 070735Z 01020G26KT M01/M01 A3034 RMK A01 T10051005  RH  100%=      5-min Rain = 0
KAM1 070736Z 01017G22KT M01/M01 A3034 RMK A01 T10051005  RH  100%=      5-min Rain = 0
KAM1 070737Z 00018KT M01/M01 A3034 RMK A01 T10051005  RH  100%=      5-min Rain = 0
KAM1 070738Z 00023G29KT M01/M01 A3034 RMK A01 T10051005  RH  100%=      5-min Rain = 0
KAM1 070739Z 00025KT M01/M01 A3034 RMK A01 T10051005  RH  100%=      5-min Rain = 0
KAM1 070740Z 01024KT M01/M01 A3034 RMK A01 T10051005  RH  100%=      5-min Rain = 0
KAM1 070741Z 01022G29KT M01/M01 A3034 RMK A01 T10061006  RH  100%=      5-min Rain = 0
KAM1 070742Z 01019KT M01/M01 A3034 RMK A01 T10051006  RH  100%=      5-min Rain = 0
KAM1 070743Z 00022KT M01/M01 A3034 RMK A01 T10061006  RH  100%=      5-min Rain = 0
KAM1 070744Z 00023G30KT M01/M01 A3034 RMK A01 T10061006  RH  100%=      5-min Rain = 0
KAM1 070745Z 00024KT M01/M01 A3034 RMK A01 T10061006  RH  100%=      5-min Rain = 0
KAM1 070746Z 01021G28KT M01/M01 A3034 RMK A01 T10061006  RH  100%=      5-min Rain = 0
KAM1 070747Z 00024KT M01/M01 A3034 RMK A01 T10061006  RH  100%=      5-min Rain = 0
KAM1 070748Z 00019G25KT M01/M01 A3034 RMK A01 T10061007  RH  100%=      5-min Rain = 0
KAM1 070749Z 00022G27KT M01/M01 A3034 RMK A01 T10061006  RH  100%=      5-min Rain = 0
KAM1 070750Z 01021G28KT M01/M01 A3034 RMK A01 T10061007  RH  100%=      5-min Rain = 0
KAM1 070751Z 00024G29KT M01/M01 A3034 RMK A01 T10061007  RH  100%=      5-min Rain = 0
KAM1 070752Z 00026KT M01/M01 A3033 RMK A01 T10061006  RH  100%=      5-min Rain = 0
KAM1 070753Z 00022G27KT M01/M01 A3033 RMK A01 T10071007  RH  100%=      5-min Rain = 0
KAM1 070754Z 00019G24KT M01/M01 A3033 RMK A01 T10071007  RH  100%=      5-min Rain = 0
KAM1 070755Z 36024KT M01/M01 A3034 RMK A01 T10061007  RH  100%=      5-min Rain = 0
KAM1 070756Z 00023KT M01/M01 A3034 RMK A01 T10061007  RH  100%=      5-min Rain = 0
KAM1 070757Z 00020G26KT M01/M01 A3034 RMK A01 T10061007  RH  100%=      5-min Rain = 0
KAM1 070758Z 00019G24KT M01/M01 A3034 RMK A01 T10061007  RH  100%=      5-min Rain = 0
KAM1 070759Z 00022G27KT M01/M01 A3034 RMK A01 T10061007  RH  100%=      5-min Rain = 0
KAM1 070800Z 00023G29KT M01/M01 A3034 RMK A01 T10061007  RH  100%=      5-min Rain = 0
KAM1 070801Z 00022G27KT M01/M01 A3034 RMK A01 T10071007  RH  100%=      5-min Rain = 0
KAM1 070802Z 01017KT M01/M01 A3034 RMK A01 T10061006  RH  100%=      5-min Rain = 0
KAM1 070803Z 01017KT M01/M01 A3035 RMK A01 T10061007  RH  100%=      5-min Rain = 0
KAM1 070804Z 01017G23KT M01/M01 A3035 RMK A01 T10071007  RH  100%=      5-min Rain = 0
KAM1 070805Z 00019G24KT M01/M01 A3035 RMK A01 T10061006  RH  100%=      5-min Rain = 0
KAM1 070806Z 01019G24KT M01/M01 A3035 RMK A01 T10061006  RH  100%=      5-min Rain = 0
KAM1 070807Z 36017KT M01/M01 A3035 RMK A01 T10061006  RH  100%=      5-min Rain = 0
KAM1 070808Z 00021G27KT M01/M01 A3035 RMK A01 T10061006  RH  100%=      5-min Rain = 0
KAM1 070809Z 00020KT M01/M01 A3035 RMK A01 T10071007  RH  100%=      5-min Rain = 0
KAM1 070810Z 01016G22KT M01/M01 A3035 RMK A01 T10071007  RH  100%=      5-min Rain = 0
KAM1 070811Z 00016KT M01/M01 A3036 RMK A01 T10071007  RH  100%=      5-min Rain = 0
KAM1 070812Z 01019G24KT M01/M01 A3036 RMK A01 T10071007  RH  100%=      5-min Rain = 0
KAM1 070813Z 36016KT M01/M01 A3036 RMK A01 T10071007  RH  100%=      5-min Rain = 0
KAM1 070814Z 35021KT M01/M01 A3035 RMK A01 T10071007  RH  100%=      5-min Rain = 0
KAM1 070815Z 36015G21KT M01/M01 A3035 RMK A01 T10071008  RH  100%=      5-min Rain = 0
KAM1 070816Z 36016KT M01/M01 A3035 RMK A01 T10071008  RH  100%=      5-min Rain = 0
KAM1 070817Z 00018KT M01/M01 A3035 RMK A01 T10071008  RH  100%=      5-min Rain = 0
KAM1 070818Z 00021KT M01/M01 A3035 RMK A01 T10071008  RH  100%=      5-min Rain = 0
KAM1 070819Z 01020KT M01/M01 A3035 RMK A01 T10081008  RH  100%=      5-min Rain = 0
KAM1 070820Z 01021G28KT M01/M01 A3035 RMK A01 T10081008  RH  100%=      5-min Rain = 0
KAM1 070821Z 01019KT M01/M01 A3035 RMK A01 T10081008  RH  100%=      5-min Rain = 0
KAM1 070822Z 00015G22KT M01/M01 A3035 RMK A01 T10081008  RH  100%=      5-min Rain = 0
KAM1 070823Z 00018KT M01/M01 A3035 RMK A01 T10081008  RH  100%=      5-min Rain = 0
KAM1 070824Z 01016G21KT M01/M01 A3036 RMK A01 T10081008  RH  100%=      5-min Rain = 0
KAM1 070825Z 01017KT M01/M01 A3035 RMK A01 T10081008  RH  100%=      5-min Rain = 0
KAM1 070826Z 01021G26KT M01/M01 A3035 RMK A01 T10081008  RH  100%=      5-min Rain = 0
KAM1 070827Z 00022KT M01/M01 A3035 RMK A01 T10091009  RH  100%=      5-min Rain = 0
KAM1 070828Z 00020G26KT M01/M01 A3035 RMK A01 T10091009  RH  100%=      5-min Rain = 0
KAM1 070829Z 00021G27KT M01/M01 A3035 RMK A01 T10101010  RH  100%=      5-min Rain = 0
KAM1 070830Z 01022G30KT M01/M01 A3035 RMK A01 T10111011  RH  100%=      5-min Rain = 0
KAM1 070831Z 00024KT M01/M01 A3035 RMK A01 T10111011  RH  100%=      5-min Rain = 0
KAM1 070832Z 00018KT M01/M01 A3035 RMK A01 T10111011  RH  100%=      5-min Rain = 0
KAM1 070833Z 00023G30KT M01/M01 A3035 RMK A01 T10111011  RH  100%=      5-min Rain = 0
KAM1 070834Z 36024G31KT M01/M01 A3035 RMK A01 T10111011  RH  100%=      5-min Rain = 0
KAM1 070835Z 00020KT M01/M01 A3035 RMK A01 T10111012  RH  100%=      5-min Rain = 0
KAM1 070836Z 36021G27KT M01/M01 A3035 RMK A01 T10111012  RH  100%=      5-min Rain = 0
KAM1 070837Z 36023KT M01/M01 A3035 RMK A01 T10111012  RH  100%=      5-min Rain = 0
KAM1 070838Z 36025G31KT M01/M01 A3036 RMK A01 T10121012  RH  100%=      5-min Rain = 0
KAM1 070839Z 01025G30KT M01/M01 A3036 RMK A01 T10121012  RH  100%=      5-min Rain = 0
KAM1 070840Z 00020G25KT M01/M01 A3036 RMK A01 T10121012  RH  100%=      5-min Rain = 0
KAM1 070841Z 00021G27KT M01/M01 A3035 RMK A01 T10121012  RH  100%=      5-min Rain = 0
KAM1 070842Z 00019G24KT M01/M01 A3035 RMK A01 T10121012  RH  100%=      5-min Rain = 0
KAM1 070843Z 01021KT M01/M01 A3035 RMK A01 T10121012  RH  100%=      5-min Rain = 0
KAM1 070844Z 00021KT M01/M01 A3035 RMK A01 T10121012  RH  100%=      5-min Rain = 0
KAM1 070845Z 01023G30KT M01/M01 A3036 RMK A01 T10121012  RH  100%=      5-min Rain = 0
KAM1 070846Z 00022G28KT M01/M01 A3036 RMK A01 T10121012  RH  100%=      5-min Rain = 0
KAM1 070847Z 00020KT M01/M01 A3036 RMK A01 T10121012  RH  100%=      5-min Rain = 0
KAM1 070848Z 36024G29KT M01/M01 A3036 RMK A01 T10121012  RH  100%=      5-min Rain = 0
KAM1 070849Z 01019G25KT M01/M01 A3036 RMK A01 T10121012  RH  100%=      5-min Rain = 0
KAM1 070850Z 00019KT M01/M01 A3036 RMK A01 T10121012  RH  100%=      5-min Rain = 0
KAM1 070851Z 00020G25KT M01/M01 A3036 RMK A01 T10121013  RH  100%=      5-min Rain = 0
KAM1 070852Z 01017KT M01/M01 A3036 RMK A01 T10121013  RH  100%=      5-min Rain = 0
KAM1 070853Z 00017G26KT M01/M01 A3036 RMK A01 T10121012  RH  100%=      5-min Rain = 0
KAM1 070854Z 01018G25KT M01/M01 A3036 RMK A01 T10121012  RH  100%=      5-min Rain = 0
KAM1 070855Z 00017G22KT M01/M01 A3036 RMK A01 T10121013  RH  100%=      5-min Rain = 0
KAM1 070856Z 00022KT M01/M01 A3036 RMK A01 T10121012  RH  100%=      5-min Rain = 0
KAM1 070857Z 01022G27KT M01/M01 A3036 RMK A01 T10131013  RH  100%=      5-min Rain = 0
KAM1 070858Z 36015G21KT M01/M01 A3036 RMK A01 T10131013  RH  100%=      5-min Rain = 0
KAM1 070859Z 35016KT M01/M01 A3036 RMK A01 T10121012  RH  100%=      5-min Rain = 0
KAM1 070900Z 35020G25KT M01/M01 A3036 RMK A01 T10121013  RH  100%=      5-min Rain = 0
KAM1 070901Z 36017G24KT M01/M01 A3037 RMK A01 T10131013  RH  100%=      5-min Rain = 0
KAM1 070902Z 36021KT M01/M01 A3037 RMK A01 T10131013  RH  100%=      5-min Rain = 0
KAM1 070903Z 36017G22KT M01/M01 A3037 RMK A01 T10131013  RH  100%=      5-min Rain = 0
KAM1 070904Z 01018G23KT M01/M01 A3037 RMK A01 T10131013  RH  100%=      5-min Rain = 0
KAM1 070905Z 35018G24KT M01/M01 A3037 RMK A01 T10131014  RH  100%=      5-min Rain = 0
KAM1 070906Z 36019KT M01/M01 A3038 RMK A01 T10141014  RH  100%=      5-min Rain = 0
KAM1 070907Z 36015G20KT M01/M01 A3038 RMK A01 T10141014  RH  100%=      5-min Rain = 0
KAM1 070908Z 01013G18KT M01/M01 A3038 RMK A01 T10141014  RH  100%=      5-min Rain = 0
KAM1 070909Z 00018KT M01/M01 A3038 RMK A01 T10141014  RH  100%=      5-min Rain = 0
KAM1 070910Z 36014KT M01/M01 A3038 RMK A01 T10141014  RH  100%=      5-min Rain = 0
KAM1 070911Z 36018G25KT M01/M01 A3038 RMK A01 T10141014  RH  100%=      5-min Rain = 0
KAM1 070912Z 36018KT M01/M02 A3038 RMK A01 T10141015  RH  100%=      5-min Rain = 0
KAM1 070913Z 36021KT M02/M02 A3038 RMK A01 T10151016  RH  100%=      5-min Rain = 0
KAM1 070914Z 00017KT M02/M02 A3038 RMK A01 T10161016  RH  100%=      5-min Rain = 0
KAM1 070915Z 00018KT M02/M02 A3038 RMK A01 T10151016  RH  100%=      5-min Rain = 0
KAM1 070916Z 00019KT M02/M02 A3038 RMK A01 T10161016  RH  100%=      5-min Rain = 0
KAM1 070917Z 00017G25KT M02/M02 A3037 RMK A01 T10161016  RH  100%=      5-min Rain = 0
KAM1 070918Z 36023KT M02/M02 A3037 RMK A01 T10161016  RH  100%=      5-min Rain = 0
KAM1 070919Z 36021KT M02/M02 A3037 RMK A01 T10161016  RH  100%=      5-min Rain = 0
KAM1 070920Z 00019G24KT M02/M02 A3037 RMK A01 T10161016  RH  100%=      5-min Rain = 0
KAM1 070921Z 01020G26KT M02/M02 A3037 RMK A01 T10161017  RH  100%=      5-min Rain = 0
KAM1 070922Z 00019KT M02/M02 A3036 RMK A01 T10171017  RH  100%=      5-min Rain = 0
KAM1 070923Z 00017KT M02/M02 A3036 RMK A01 T10171017  RH  100%=      5-min Rain = 0
KAM1 070924Z 01016G23KT M02/M02 A3037 RMK A01 T10171017  RH  100%=      5-min Rain = 0
KAM1 070925Z 01023KT M02/M02 A3036 RMK A01 T10171017  RH  100%=      5-min Rain = 0
KAM1 070926Z 01021KT M02/M02 A3036 RMK A01 T10171017  RH  100%=      5-min Rain = 0
KAM1 070927Z 01020G25KT M02/M02 A3036 RMK A01 T10171017  RH  100%=      5-min Rain = 0
KAM1 070928Z 01019KT M02/M02 A3036 RMK A01 T10171017  RH  100%=      5-min Rain = 0
KAM1 070929Z 02019KT M02/M02 A3036 RMK A01 T10171017  RH  100%=      5-min Rain = 0
KAM1 070930Z 02019G28KT M02/M02 A3036 RMK A01 T10171017  RH  100%=      5-min Rain = 0
KAM1 070931Z 01025KT M02/M02 A3036 RMK A01 T10171017  RH  100%=      5-min Rain = 0
KAM1 070932Z 01019G24KT M02/M02 A3036 RMK A01 T10171017  RH  100%=      5-min Rain = 0
KAM1 070933Z 01018KT M02/M02 A3036 RMK A01 T10181018  RH  100%=      5-min Rain = 0
KAM1 070934Z 01020KT M02/M02 A3036 RMK A01 T10171017  RH  100%=      5-min Rain = 0
KAM1 070935Z 01022G27KT M02/M02 A3036 RMK A01 T10171017  RH  100%=      5-min Rain = 0
KAM1 070936Z 01021G28KT M02/M02 A3036 RMK A01 T10171018  RH  100%=      5-min Rain = 0
KAM1 070937Z 02023G29KT M02/M02 A3036 RMK A01 T10171017  RH  100%=      5-min Rain = 0
KAM1 070938Z 01023G29KT M02/M02 A3036 RMK A01 T10171018  RH  100%=      5-min Rain = 0
KAM1 070939Z 01023G28KT M02/M02 A3036 RMK A01 T10171017  RH  100%=      5-min Rain = 0
KAM1 070940Z 01018KT M02/M02 A3036 RMK A01 T10171017  RH  100%=      5-min Rain = 0
KAM1 070941Z 01020KT M02/M02 A3036 RMK A01 T10171017  RH  100%=      5-min Rain = 0
KAM1 070942Z 01019G24KT M02/M02 A3036 RMK A01 T10171017  RH  100%=      5-min Rain = 0
KAM1 070943Z 01019G24KT M02/M02 A3036 RMK A01 T10171017  RH  100%=      5-min Rain = 0
KAM1 070944Z 01021KT M02/M02 A3036 RMK A01 T10171017  RH  100%=      5-min Rain = 0
KAM1 070945Z 01019KT M02/M02 A3035 RMK A01 T10171017  RH  100%=      5-min Rain = 0
KAM1 070946Z 01020KT M02/M02 A3035 RMK A01 T10171017  RH  100%=      5-min Rain = 0
KAM1 070947Z 01018G23KT M02/M02 A3035 RMK A01 T10171017  RH  100%=      5-min Rain = 0
KAM1 070948Z 02020KT M02/M02 A3035 RMK A01 T10171017  RH  100%=      5-min Rain = 0
KAM1 070949Z 02018G25KT M02/M02 A3035 RMK A01 T10181018  RH  100%=      5-min Rain = 0
KAM1 070950Z 02020KT M02/M02 A3035 RMK A01 T10181018  RH  100%=      5-min Rain = 0
KAM1 070951Z 02020G25KT M02/M02 A3035 RMK A01 T10171018  RH  100%=      5-min Rain = 0
KAM1 070952Z 01019G25KT M02/M02 A3035 RMK A01 T10171018  RH  100%=      5-min Rain = 0
KAM1 070953Z 01017G25KT M02/M02 A3035 RMK A01 T10171018  RH  100%=      5-min Rain = 0
KAM1 070954Z 01022KT M02/M02 A3035 RMK A01 T10181018  RH  100%=      5-min Rain = 0
KAM1 070955Z 01022G28KT M02/M02 A3035 RMK A01 T10181018  RH  100%=      5-min Rain = 0
KAM1 070956Z 00020G25KT M02/M02 A3036 RMK A01 T10181018  RH  100%=      5-min Rain = 0
KAM1 070957Z 00020G25KT M02/M02 A3036 RMK A01 T10181019  RH  100%=      5-min Rain = 0
KAM1 070958Z 01016KT M02/M02 A3037 RMK A01 T10181019  RH  100%=      5-min Rain = 0
KAM1 070959Z 00017KT M02/M02 A3037 RMK A01 T10181018  RH  100%=      5-min Rain = 0
KAM1 071000Z 00019KT M02/M02 A3037 RMK A01 T10181018  RH  100%=      5-min Rain = 0
KAM1 071001Z 00021G26KT M02/M02 A3036 RMK A01 T10171018  RH  100%=      5-min Rain = 0
KAM1 071002Z 00020KT M02/M02 A3036 RMK A01 T10171017  RH  100%=      5-min Rain = 0
KAM1 071003Z 01019KT M02/M02 A3036 RMK A01 T10181018  RH  100%=      5-min Rain = 0
KAM1 071004Z 00020G25KT M02/M02 A3036 RMK A01 T10181018  RH  100%=      5-min Rain = 0
KAM1 071005Z 36023G29KT M02/M02 A3036 RMK A01 T10181018  RH  100%=      5-min Rain = 0
KAM1 071006Z 01021G26KT M02/M02 A3036 RMK A01 T10181019  RH  100%=      5-min Rain = 0
KAM1 071007Z 00023G28KT M02/M02 A3036 RMK A01 T10181019  RH  100%=      5-min Rain = 0
KAM1 071008Z 01025G32KT M02/M02 A3036 RMK A01 T10181019  RH  100%=      5-min Rain = 0
KAM1 071009Z 01025KT M02/M02 A3036 RMK A01 T10191019  RH  100%=      5-min Rain = 0
KAM1 071010Z 01024G29KT M02/M02 A3035 RMK A01 T10191019  RH  100%=      5-min Rain = 0
KAM1 071011Z 01020G25KT M02/M02 A3035 RMK A01 T10191019  RH  100%=      5-min Rain = 0
KAM1 071012Z 01021KT M02/M02 A3036 RMK A01 T10191019  RH  100%=      5-min Rain = 0
KAM1 071013Z 01019G26KT M02/M02 A3035 RMK A01 T10191019  RH  100%=      5-min Rain = 0
KAM1 071014Z 01020G25KT M02/M02 A3036 RMK A01 T10191019  RH  100%=      5-min Rain = 0
KAM1 071015Z 01022KT M02/M02 A3035 RMK A01 T10181018  RH  100%=      5-min Rain = 0
KAM1 071016Z 01020KT M02/M02 A3035 RMK A01 T10181018  RH  100%=      5-min Rain = 0
KAM1 071017Z 01021KT M02/M02 A3035 RMK A01 T10181018  RH  100%=      5-min Rain = 0
KAM1 071018Z 00021G26KT M02/M02 A3035 RMK A01 T10181018  RH  100%=      5-min Rain = 0
KAM1 071019Z 00020G27KT M02/M02 A3036 RMK A01 T10181018  RH  100%=      5-min Rain = 0
KAM1 071020Z 01020G26KT M02/M02 A3036 RMK A01 T10181018  RH  100%=      5-min Rain = 0
KAM1 071021Z 01024G31KT M02/M02 A3037 RMK A01 T10181018  RH  100%=      5-min Rain = 0
KAM1 071022Z 01023G28KT M02/M02 A3037 RMK A01 T10181019  RH  100%=      5-min Rain = 0
KAM1 071023Z 00024KT M02/M02 A3037 RMK A01 T10181018  RH  100%=      5-min Rain = 0
KAM1 071024Z 00023G28KT M02/M02 A3037 RMK A01 T10181019  RH  100%=      5-min Rain = 0
KAM1 071025Z 01020G25KT M02/M02 A3037 RMK A01 T10181019  RH  099%=      5-min Rain = 0
KAM1 071026Z 00021KT M02/M02 A3038 RMK A01 T10181019  RH  099%=      5-min Rain = 0
KAM1 071027Z 01020G26KT M02/M02 A3038 RMK A01 T10181019  RH  099%=      5-min Rain = 0
KAM1 071028Z 01021G26KT M02/M02 A3037 RMK A01 T10181019  RH  099%=      5-min Rain = 0
KAM1 071029Z 01019G26KT M02/M02 A3037 RMK A01 T10181020  RH  099%=      5-min Rain = 0
KAM1 071030Z 01020G25KT M02/M02 A3037 RMK A01 T10181020  RH  099%=      5-min Rain = 0
KAM1 071031Z 01020KT M02/M02 A3037 RMK A01 T10181020  RH  098%=      5-min Rain = 0
KAM1 071032Z 01018KT M02/M02 A3037 RMK A01 T10181020  RH  098%=      5-min Rain = 0
KAM1 071033Z 00023KT M02/M02 A3037 RMK A01 T10181020  RH  098%=      5-min Rain = 0
KAM1 071034Z 01021KT M02/M02 A3037 RMK A01 T10181020  RH  098%=      5-min Rain = 0
KAM1 071035Z 01020G27KT M02/M02 A3037 RMK A01 T10181020  RH  099%=      5-min Rain = 0
KAM1 071036Z 01020G25KT M02/M02 A3037 RMK A01 T10181019  RH  099%=      5-min Rain = 0
KAM1 071037Z 01021G26KT M02/M02 A3037 RMK A01 T10181019  RH  100%=      5-min Rain = 0
KAM1 071038Z 01020KT M02/M02 A3037 RMK A01 T10181019  RH  100%=      5-min Rain = 0
KAM1 071039Z 01020G25KT M02/M02 A3037 RMK A01 T10181019  RH  100%=      5-min Rain = 0
KAM1 071040Z 00022G28KT M02/M02 A3037 RMK A01 T10191019  RH  100%=      5-min Rain = 0
KAM1 071041Z 01020G27KT M02/M02 A3037 RMK A01 T10191019  RH  100%=      5-min Rain = 0
KAM1 071042Z 01023KT M02/M02 A3037 RMK A01 T10191019  RH  100%=      5-min Rain = 0
KAM1 071043Z 01021G26KT M02/M02 A3037 RMK A01 T10191019  RH  100%=      5-min Rain = 0
KAM1 071044Z 00021KT M02/M02 A3037 RMK A01 T10191019  RH  100%=      5-min Rain = 0
KAM1 071045Z 01018G23KT M02/M02 A3037 RMK A01 T10191019  RH  100%=      5-min Rain = 0
KAM1 071046Z 01022KT M02/M02 A3037 RMK A01 T10191019  RH  100%=      5-min Rain = 0
KAM1 071047Z 01022G27KT M02/M02 A3037 RMK A01 T10191019  RH  100%=      5-min Rain = 0
KAM1 071048Z 01021G27KT M02/M02 A3037 RMK A01 T10191019  RH  100%=      5-min Rain = 0
KAM1 071049Z 01017KT M02/M02 A3037 RMK A01 T10191019  RH  100%=      5-min Rain = 0
KAM1 071050Z 01014KT M02/M02 A3037 RMK A01 T10191019  RH  100%=      5-min Rain = 0
KAM1 071051Z 00018G24KT M02/M02 A3037 RMK A01 T10181018  RH  100%=      5-min Rain = 0
KAM1 071052Z 01017G23KT M02/M02 A3037 RMK A01 T10181019  RH  100%=      5-min Rain = 0
KAM1 071053Z 00022G30KT M02/M02 A3037 RMK A01 T10181019  RH  100%=      5-min Rain = 0
KAM1 071054Z 00022G28KT M02/M02 A3038 RMK A01 T10191019  RH  100%=      5-min Rain = 0
KAM1 071055Z 00021KT M02/M02 A3038 RMK A01 T10191019  RH  100%=      5-min Rain = 0
KAM1 071056Z 01018G24KT M02/M02 A3038 RMK A01 T10201020  RH  100%=      5-min Rain = 0
KAM1 071057Z 00020G25KT M02/M02 A3038 RMK A01 T10191020  RH  100%=      5-min Rain = 0
KAM1 071058Z 01023G28KT M02/M02 A3038 RMK A01 T10201020  RH  100%=      5-min Rain = 0
KAM1 071059Z 01022G27KT M02/M02 A3037 RMK A01 T10201020  RH  100%=      5-min Rain = 0
KAM1 071100Z 01024KT M02/M02 A3038 RMK A01 T10201020  RH  100%=      5-min Rain = 0
KAM1 071101Z 01024KT M02/M02 A3038 RMK A01 T10201021  RH  099%=      5-min Rain = 0
KAM1 071102Z 01018G23KT M02/M02 A3038 RMK A01 T10201021  RH  099%=      5-min Rain = 0
KAM1 071103Z 01019G26KT M02/M02 A3038 RMK A01 T10201021  RH  099%=      5-min Rain = 0
KAM1 071104Z 01021KT M02/M02 A3038 RMK A01 T10201021  RH  099%=      5-min Rain = 0
KAM1 071105Z 01020KT M02/M02 A3038 RMK A01 T10201022  RH  099%=      5-min Rain = 0
KAM1 071106Z 01022G29KT M02/M02 A3039 RMK A01 T10201022  RH  099%=      5-min Rain = 0
KAM1 071107Z 00022G29KT M02/M02 A3039 RMK A01 T10201022  RH  099%=      5-min Rain = 0
KAM1 071108Z 00023KT M02/M02 A3039 RMK A01 T10201022  RH  098%=      5-min Rain = 0
KAM1 071109Z 00022G27KT M02/M02 A3039 RMK A01 T10201023  RH  098%=      5-min Rain = 0
KAM1 071110Z 00022G27KT M02/M02 A3039 RMK A01 T10201023  RH  098%=      5-min Rain = 0
KAM1 071111Z 00017G22KT M02/M02 A3039 RMK A01 T10191023  RH  098%=      5-min Rain = 0
KAM1 071112Z 00023KT M02/M02 A3039 RMK A01 T10201023  RH  098%=      5-min Rain = 0
KAM1 071113Z 00019G25KT M02/M02 A3039 RMK A01 T10201023  RH  098%=      5-min Rain = 0
KAM1 071114Z 01023KT M02/M02 A3039 RMK A01 T10211024  RH  098%=      5-min Rain = 0
KAM1 071115Z 01021KT M02/M02 A3039 RMK A01 T10211023  RH  098%=      5-min Rain = 0
KAM1 071116Z 00022KT M02/M02 A3039 RMK A01 T10211024  RH  098%=      5-min Rain = 0
KAM1 071117Z 01020KT M02/M02 A3039 RMK A01 T10211024  RH  098%=      5-min Rain = 0
KAM1 071118Z 01020G28KT M02/M02 A3039 RMK A01 T10211023  RH  099%=      5-min Rain = 0
KAM1 071119Z 01019G27KT M02/M02 A3039 RMK A01 T10211023  RH  099%=      5-min Rain = 0
KAM1 071120Z 01018G23KT M02/M02 A3039 RMK A01 T10211023  RH  099%=      5-min Rain = 0
KAM1 071121Z 01024KT M02/M02 A3039 RMK A01 T10211022  RH  099%=      5-min Rain = 0
KAM1 071122Z 01023KT M02/M02 A3039 RMK A01 T10211023  RH  099%=      5-min Rain = 0
KAM1 071123Z 01021KT M02/M02 A3039 RMK A01 T10211022  RH  099%=      5-min Rain = 0
KAM1 071124Z 01020G26KT M02/M02 A304 RMK A01 T10211022  RH  099%=      5-min Rain = 0
KAM1 071125Z 00020KT M02/M02 A304 RMK A01 T10211022  RH  099%=      5-min Rain = 0
KAM1 071126Z 01017KT M02/M02 A304 RMK A01 T10211022  RH  099%=      5-min Rain = 0
KAM1 071127Z 01015KT M02/M02 A304 RMK A01 T10211022  RH  099%=      5-min Rain = 0
KAM1 071128Z 00018KT M02/M02 A304 RMK A01 T10211021  RH  099%=      5-min Rain = 0
KAM1 071129Z 01016KT M02/M02 A304 RMK A01 T10201021  RH  099%=      5-min Rain = 0
KAM1 071130Z 00017KT M02/M02 A304 RMK A01 T10201021  RH  099%=      5-min Rain = 0
KAM1 071131Z 01019KT M02/M02 A304 RMK A01 T10201021  RH  099%=      5-min Rain = 0
KAM1 071132Z 01014KT M02/M02 A304 RMK A01 T10201021  RH  099%=      5-min Rain = 0
KAM1 071133Z 00015G22KT M02/M02 A3039 RMK A01 T10201021  RH  099%=      5-min Rain = 0
KAM1 071134Z 01018G24KT M02/M02 A3039 RMK A01 T10201021  RH  099%=      5-min Rain = 0
KAM1 071135Z 01019KT M02/M02 A3039 RMK A01 T10201021  RH  099%=      5-min Rain = 0
KAM1 071136Z 01019KT M02/M02 A3039 RMK A01 T10201021  RH  100%=      5-min Rain = 0
KAM1 071137Z 01020G26KT M02/M02 A304 RMK A01 T10201021  RH  100%=      5-min Rain = 0
KAM1 071138Z 00021KT M02/M02 A3039 RMK A01 T10211021  RH  100%=      5-min Rain = 0
KAM1 071139Z 01021G27KT M02/M02 A304 RMK A01 T10211021  RH  100%=      5-min Rain = 0
KAM1 071140Z 01022KT M02/M02 A304 RMK A01 T10211021  RH  100%=      5-min Rain = 0
KAM1 071141Z 00019KT M02/M02 A304 RMK A01 T10211022  RH  099%=      5-min Rain = 0
KAM1 071142Z 36020KT M02/M02 A3039 RMK A01 T10211022  RH  099%=      5-min Rain = 0
KAM1 071143Z 01020KT M02/M02 A3039 RMK A01 T10211022  RH  099%=      5-min Rain = 0
KAM1 071144Z 00018G23KT M02/M02 A304 RMK A01 T10211023  RH  099%=      5-min Rain = 0
KAM1 071145Z 01016G21KT M02/M02 A304 RMK A01 T10201022  RH  099%=      5-min Rain = 0
KAM1 071146Z 00015G20KT M02/M02 A304 RMK A01 T10201022  RH  099%=      5-min Rain = 0
KAM1 071147Z 36016KT M02/M02 A304 RMK A01 T10201021  RH  099%=      5-min Rain = 0
KAM1 071148Z 00017G22KT M02/M02 A304 RMK A01 T10201021  RH  099%=      5-min Rain = 0
KAM1 071149Z 01020KT M02/M02 A304 RMK A01 T10201021  RH  100%=      5-min Rain = 0
KAM1 071150Z 00018KT M02/M02 A304 RMK A01 T10211023  RH  098%=      5-min Rain = 0
KAM1 071151Z 00019KT M02/M03 A3041 RMK A01 T10221025  RH  098%=      5-min Rain = 0
KAM1 071152Z 00021KT M02/M03 A304 RMK A01 T10221026  RH  097%=      5-min Rain = 0
KAM1 071153Z 01023G28KT M02/M03 A3041 RMK A01 T10231028  RH  096%=      5-min Rain = 0
KAM1 071154Z 01021KT M02/M03 A3041 RMK A01 T10231030  RH  095%=      5-min Rain = 0
KAM1 071155Z 02018G23KT M02/M03 A304 RMK A01 T10231030  RH  095%=      5-min Rain = 0
KAM1 071156Z 02020G27KT M02/M03 A304 RMK A01 T10231030  RH  095%=      5-min Rain = 0
KAM1 071157Z 01021G29KT M02/M03 A304 RMK A01 T10241031  RH  095%=      5-min Rain = 0
KAM1 071158Z 02019KT M02/M03 A3041 RMK A01 T10241031  RH  095%=      5-min Rain = 0
KAM1 071159Z 01020KT M02/M03 A3041 RMK A01 T10241031  RH  095%=      5-min Rain = 0
KAM1 071200Z 01017KT M02/M03 A3041 RMK A01 T10241031  RH  095%=      5-min Rain = 0
KAM1 071201Z 02018KT M02/M03 A3041 RMK A01 T10241031  RH  095%=      5-min Rain = 0
KAM1 071202Z 01016G21KT M02/M03 A3042 RMK A01 T10241031  RH  095%=      5-min Rain = 0
KAM1 071203Z 01018KT M02/M03 A3041 RMK A01 T10241030  RH  095%=      5-min Rain = 0
KAM1 071204Z 01013KT M02/M03 A3041 RMK A01 T10241030  RH  096%=      5-min Rain = 0
KAM1 071205Z 00014KT M02/M03 A3041 RMK A01 T10231029  RH  096%=      5-min Rain = 0
KAM1 071206Z 01017G23KT M02/M03 A3042 RMK A01 T10231028  RH  096%=      5-min Rain = 0
KAM1 071207Z 01019KT M02/M03 A3042 RMK A01 T10231028  RH  097%=      5-min Rain = 0
KAM1 071208Z 01015KT M02/M03 A3042 RMK A01 T10231027  RH  097%=      5-min Rain = 0
KAM1 071209Z 01013KT M02/M03 A3042 RMK A01 T10231027  RH  097%=      5-min Rain = 0
KAM1 071210Z 01017G22KT M02/M03 A3042 RMK A01 T10231026  RH  097%=      5-min Rain = 0
KAM1 071211Z 02013KT M02/M03 A3041 RMK A01 T10231026  RH  097%=      5-min Rain = 0
KAM1 071212Z 01014G19KT M02/M03 A3041 RMK A01 T10231026  RH  098%=      5-min Rain = 0
KAM1 071213Z 01018KT M02/M03 A3041 RMK A01 T10231026  RH  098%=      5-min Rain = 0
KAM1 071214Z 00017G22KT M02/M03 A3041 RMK A01 T10231026  RH  098%=      5-min Rain = 0
KAM1 071215Z 01016KT M02/M03 A3041 RMK A01 T10231025  RH  098%=      5-min Rain = 0
KAM1 071216Z 01016KT M02/M03 A3041 RMK A01 T10231025  RH  099%=      5-min Rain = 0
KAM1 071217Z 01017KT M02/M03 A3041 RMK A01 T10231025  RH  099%=      5-min Rain = 0
KAM1 071218Z 02019KT M02/M02 A3041 RMK A01 T10231024  RH  099%=      5-min Rain = 0
KAM1 071219Z 01015KT M02/M03 A3041 RMK A01 T10231025  RH  099%=      5-min Rain = 0
KAM1 071220Z 01012KT M02/M02 A3041 RMK A01 T10231024  RH  100%=      5-min Rain = 0
KAM1 071221Z 01016G21KT M02/M02 A3042 RMK A01 T10231023  RH  100%=      5-min Rain = 0
KAM1 071222Z 01015KT M02/M02 A3042 RMK A01 T10231024  RH  100%=      5-min Rain = 0
KAM1 071223Z 01017KT M02/M02 A3042 RMK A01 T10231024  RH  099%=      5-min Rain = 0
KAM1 071224Z 02016G21KT M02/M02 A3042 RMK A01 T10231024  RH  100%=      5-min Rain = 0
KAM1 071225Z 01013KT M02/M02 A3042 RMK A01 T10241024  RH  100%=      5-min Rain = 0
KAM1 071226Z 01016KT M02/M02 A3042 RMK A01 T10241024  RH  100%=      5-min Rain = 0
KAM1 071227Z 01013KT M02/M02 A3043 RMK A01 T10241024  RH  100%=      5-min Rain = 0
KAM1 071228Z 01012KT M02/M02 A3043 RMK A01 T10241024  RH  100%=      5-min Rain = 0
KAM1 071229Z 01017G22KT M02/M02 A3043 RMK A01 T10241024  RH  100%=      5-min Rain = 0
KAM1 071230Z 02018G25KT M02/M02 A3043 RMK A01 T10241024  RH  100%=      5-min Rain = 0
KAM1 071231Z 01017KT M02/M03 A3043 RMK A01 T10241025  RH  099%=      5-min Rain = 0
KAM1 071232Z 02015KT M02/M03 A3043 RMK A01 T10241026  RH  098%=      5-min Rain = 0
KAM1 071233Z 02021KT M02/M03 A3043 RMK A01 T10241026  RH  098%=      5-min Rain = 0
KAM1 071234Z 02018KT M02/M03 A3043 RMK A01 T10241028  RH  098%=      5-min Rain = 0
KAM1 071235Z 02015KT M02/M03 A3043 RMK A01 T10241027  RH  098%=      5-min Rain = 0
KAM1 071236Z 02016KT M02/M03 A3043 RMK A01 T10241027  RH  098%=      5-min Rain = 0
KAM1 071237Z 01014KT M02/M03 A3043 RMK A01 T10241027  RH  098%=      5-min Rain = 0
KAM1 071238Z 01016G21KT M02/M03 A3043 RMK A01 T10241026  RH  098%=      5-min Rain = 0
KAM1 071239Z 01019KT M02/M03 A3043 RMK A01 T10241026  RH  098%=      5-min Rain = 0
KAM1 071240Z 01023KT M02/M03 A3043 RMK A01 T10241027  RH  098%=      5-min Rain = 0
KAM1 071241Z 01021KT M02/M03 A3044 RMK A01 T10241027  RH  098%=      5-min Rain = 0
KAM1 071242Z 01019KT M02/M03 A3043 RMK A01 T10241027  RH  097%=      5-min Rain = 0
KAM1 071243Z 02018KT M02/M03 A3043 RMK A01 T10241028  RH  097%=      5-min Rain = 0
KAM1 071244Z 02018KT M02/M03 A3043 RMK A01 T10231027  RH  097%=      5-min Rain = 0
KAM1 071245Z 02019KT M02/M03 A3043 RMK A01 T10231028  RH  097%=      5-min Rain = 0
KAM1 071246Z 02020KT M02/M03 A3043 RMK A01 T10241028  RH  097%=      5-min Rain = 0
KAM1 071247Z 02017G22KT M02/M03 A3043 RMK A01 T10241028  RH  097%=      5-min Rain = 0
KAM1 071248Z 02019KT M02/M03 A3043 RMK A01 T10241028  RH  097%=      5-min Rain = 0
KAM1 071249Z 01017KT M02/M03 A3043 RMK A01 T10241028  RH  097%=      5-min Rain = 0
KAM1 071250Z 02015KT M02/M03 A3043 RMK A01 T10241028  RH  097%=      5-min Rain = 0
KAM1 071251Z 01017KT M02/M03 A3043 RMK A01 T10241027  RH  098%=      5-min Rain = 0
KAM1 071252Z 01015G21KT M02/M03 A3043 RMK A01 T10241027  RH  098%=      5-min Rain = 0
KAM1 071253Z 02014KT M02/M03 A3043 RMK A01 T10241026  RH  099%=      5-min Rain = 0
KAM1 071254Z 02016KT M02/M03 A3043 RMK A01 T10241026  RH  099%=      5-min Rain = 0
KAM1 071255Z 01016KT M02/M03 A3043 RMK A01 T10241025  RH  099%=      5-min Rain = 0
KAM1 071256Z 01013KT M02/M02 A3043 RMK A01 T10241024  RH  100%=      5-min Rain = 0
KAM1 071257Z 01013KT M02/M02 A3043 RMK A01 T10241024  RH  100%=      5-min Rain = 0
KAM1 071258Z 01016KT M02/M02 A3043 RMK A01 T10241024  RH  100%=      5-min Rain = 0
KAM1 071259Z 01016KT M02/M02 A3043 RMK A01 T10241024  RH  100%=      5-min Rain = 0
KAM1 071300Z 00016G21KT M02/M02 A3043 RMK A01 T10241024  RH  100%=      5-min Rain = 0
KAM1 071301Z 01014G19KT M02/M02 A3043 RMK A01 T10241024  RH  100%=      5-min Rain = 0
KAM1 071302Z 01013KT M02/M02 A3043 RMK A01 T10241024  RH  100%=      5-min Rain = 0
KAM1 071303Z 01014G19KT M02/M02 A3043 RMK A01 T10241024  RH  100%=      5-min Rain = 0
KAM1 071304Z 01014KT M02/M02 A3043 RMK A01 T10241024  RH  100%=      5-min Rain = 0
KAM1 071305Z 01015G20KT M02/M02 A3043 RMK A01 T10241024  RH  100%=      5-min Rain = 0
KAM1 071306Z 02018KT M02/M02 A3043 RMK A01 T10241024  RH  100%=      5-min Rain = 0
KAM1 071307Z 02014G19KT M02/M02 A3044 RMK A01 T10231024  RH  100%=      5-min Rain = 0
KAM1 071308Z 01011KT M02/M02 A3044 RMK A01 T10231023  RH  100%=      5-min Rain = 0
KAM1 071309Z 00014KT M02/M02 A3044 RMK A01 T10231023  RH  100%=      5-min Rain = 0
KAM1 071310Z 00017KT M02/M02 A3044 RMK A01 T10231023  RH  100%=      5-min Rain = 0
KAM1 071311Z 01017G22KT M02/M02 A3044 RMK A01 T10231023  RH  100%=      5-min Rain = 0
KAM1 071312Z 01017KT M02/M02 A3044 RMK A01 T10231024  RH  100%=      5-min Rain = 0
KAM1 071313Z 01018G23KT M02/M02 A3044 RMK A01 T10231024  RH  099%=      5-min Rain = 0
KAM1 071314Z 00019KT M02/M02 A3043 RMK A01 T10231024  RH  099%=      5-min Rain = 0
KAM1 071315Z 00018KT M02/M02 A3043 RMK A01 T10231024  RH  099%=      5-min Rain = 0
KAM1 071316Z 00017G23KT M02/M02 A3043 RMK A01 T10231024  RH  099%=      5-min Rain = 0
KAM1 071317Z 01016KT M02/M02 A3043 RMK A01 T10231024  RH  099%=      5-min Rain = 0
KAM1 071318Z 01014KT M02/M02 A3043 RMK A01 T10231023  RH  100%=      5-min Rain = 0
KAM1 071319Z 01016G21KT M02/M02 A3043 RMK A01 T10231023  RH  100%=      5-min Rain = 0
KAM1 071320Z 01015KT M02/M02 A3043 RMK A01 T10231023  RH  100%=      5-min Rain = 0
KAM1 071321Z 01016KT M02/M02 A3043 RMK A01 T10231023  RH  100%=      5-min Rain = 0
KAM1 071322Z 02014G19KT M02/M02 A3044 RMK A01 T10231023  RH  100%=      5-min Rain = 0
KAM1 071323Z 02019KT M02/M02 A3044 RMK A01 T10231023  RH  100%=      5-min Rain = 0
KAM1 071324Z 02018G23KT M02/M02 A3044 RMK A01 T10231023  RH  100%=      5-min Rain = 0
KAM1 071325Z 02017G22KT M02/M02 A3044 RMK A01 T10231023  RH  100%=      5-min Rain = 0
KAM1 071326Z 02016KT M02/M02 A3044 RMK A01 T10231023  RH  100%=      5-min Rain = 0
KAM1 071327Z 02017KT M02/M02 A3044 RMK A01 T10231023  RH  100%=      5-min Rain = 0
KAM1 071328Z 02017G22KT M02/M02 A3044 RMK A01 T10231023  RH  100%=      5-min Rain = 0
KAM1 071329Z 02016KT M02/M02 A3044 RMK A01 T10231023  RH  100%=      5-min Rain = 0
KAM1 071330Z 01016KT M02/M02 A3044 RMK A01 T10231023  RH  100%=      5-min Rain = 0
KAM1 071331Z 01015G20KT M02/M02 A3044 RMK A01 T10231024  RH  100%=      5-min Rain = 0
KAM1 071332Z 02014G19KT M02/M02 A3044 RMK A01 T10231023  RH  100%=      5-min Rain = 0
KAM1 071333Z 01015KT M02/M02 A3044 RMK A01 T10231023  RH  100%=      5-min Rain = 0
KAM1 071334Z 01014KT M02/M02 A3044 RMK A01 T10231023  RH  100%=      5-min Rain = 0
KAM1 071335Z 01017KT M02/M02 A3044 RMK A01 T10221022  RH  100%=      5-min Rain = 0
KAM1 071336Z 01013KT M02/M02 A3044 RMK A01 T10221022  RH  100%=      5-min Rain = 0
KAM1 071337Z 01016G21KT M02/M02 A3044 RMK A01 T10221022  RH  100%=      5-min Rain = 0
KAM1 071338Z 01014KT M02/M02 A3044 RMK A01 T10221022  RH  100%=      5-min Rain = 0
KAM1 071339Z 01016KT M02/M02 A3044 RMK A01 T10221022  RH  100%=      5-min Rain = 0
KAM1 071340Z 01013KT M02/M02 A3043 RMK A01 T10221022  RH  100%=      5-min Rain = 0
KAM1 071341Z 00014G21KT M02/M02 A3043 RMK A01 T10221022  RH  100%=      5-min Rain = 0
KAM1 071342Z 00014KT M02/M02 A3044 RMK A01 T10221022  RH  100%=      5-min Rain = 0
KAM1 071343Z 00014KT M02/M02 A3044 RMK A01 T10221022  RH  100%=      5-min Rain = 0
KAM1 071344Z 01017G23KT M02/M02 A3044 RMK A01 T10221022  RH  100%=      5-min Rain = 0
KAM1 071345Z 01018KT M02/M02 A3044 RMK A01 T10221022  RH  100%=      5-min Rain = 0
KAM1 071346Z 01017KT M02/M02 A3044 RMK A01 T10221022  RH  100%=      5-min Rain = 0
KAM1 071347Z 01015KT M02/M02 A3044 RMK A01 T10221023  RH  100%=      5-min Rain = 0
KAM1 071348Z 02016G22KT M02/M02 A3043 RMK A01 T10221022  RH  100%=      5-min Rain = 0
KAM1 071349Z 02017KT M02/M02 A3044 RMK A01 T10221022  RH  100%=      5-min Rain = 0
KAM1 071350Z 02020KT M02/M02 A3044 RMK A01 T10221022  RH  100%=      5-min Rain = 0
KAM1 071351Z 01016KT M02/M02 A3044 RMK A01 T10231023  RH  100%=      5-min Rain = 0
KAM1 071352Z 01014KT M02/M02 A3044 RMK A01 T10231023  RH  100%=      5-min Rain = 0
KAM1 071353Z 00012KT M02/M02 A3044 RMK A01 T10231023  RH  100%=      5-min Rain = 0
KAM1 071354Z 00014KT M02/M02 A3044 RMK A01 T10231023  RH  100%=      5-min Rain = 0
KAM1 071355Z 00018G23KT M02/M02 A3044 RMK A01 T10231023  RH  100%=      5-min Rain = 0
KAM1 071356Z 36019KT M02/M02 A3044 RMK A01 T10241024  RH  100%=      5-min Rain = 0
KAM1 071357Z 00020KT M03/M03 A3044 RMK A01 T10251025  RH  100%=      5-min Rain = 0
KAM1 071358Z 36017KT M03/M03 A3044 RMK A01 T10251025  RH  100%=      5-min Rain = 0
KAM1 071359Z 36016KT M03/M03 A3044 RMK A01 T10251026  RH  100%=      5-min Rain = 0
KAM1 071400Z 01014G19KT M03/M03 A3044 RMK A01 T10261026  RH  100%=      5-min Rain = 0
KAM1 071401Z 01016KT M03/M03 A3044 RMK A01 T10261026  RH  100%=      5-min Rain = 0
KAM1 071402Z 01015KT M03/M03 A3045 RMK A01 T10261026  RH  100%=      5-min Rain = 0
KAM1 071403Z 01015KT M03/M03 A3045 RMK A01 T10251025  RH  100%=      5-min Rain = 0
KAM1 071404Z 00017G22KT M03/M03 A3045 RMK A01 T10261026  RH  100%=      5-min Rain = 0
KAM1 071405Z 00015KT M03/M03 A3045 RMK A01 T10261026  RH  100%=      5-min Rain = 0
KAM1 071406Z 01013KT M03/M03 A3045 RMK A01 T10261026  RH  100%=      5-min Rain = 0
KAM1 071407Z 01015KT M03/M03 A3045 RMK A01 T10251025  RH  100%=      5-min Rain = 0
KAM1 071408Z 01015KT M03/M03 A3045 RMK A01 T10251025  RH  100%=      5-min Rain = 0
KAM1 071409Z 01014KT M03/M03 A3045 RMK A01 T10251025  RH  100%=      5-min Rain = 0
KAM1 071410Z 01016KT M03/M03 A3045 RMK A01 T10251025  RH  100%=      5-min Rain = 0
KAM1 071411Z 00017KT M03/M03 A3045 RMK A01 T10251025  RH  100%=      5-min Rain = 0
KAM1 071412Z 01015G21KT M03/M03 A3045 RMK A01 T10251025  RH  100%=      5-min Rain = 0
KAM1 071413Z 02016KT M03/M03 A3046 RMK A01 T10251025  RH  100%=      5-min Rain = 0
KAM1 071414Z 02018KT M03/M03 A3046 RMK A01 T10251025  RH  100%=      5-min Rain = 0
KAM1 071415Z 02014KT M03/M03 A3046 RMK A01 T10251025  RH  100%=      5-min Rain = 0
KAM1 071416Z 02015KT M03/M03 A3046 RMK A01 T10251025  RH  100%=      5-min Rain = 0
KAM1 071417Z 02015G20KT M03/M03 A3046 RMK A01 T10251025  RH  100%=      5-min Rain = 0
KAM1 071418Z 01014G20KT M03/M03 A3046 RMK A01 T10251025  RH  100%=      5-min Rain = 0
KAM1 071419Z 02014KT M03/M03 A3046 RMK A01 T10251025  RH  100%=      5-min Rain = 0
KAM1 071420Z 02013KT M03/M03 A3046 RMK A01 T10251025  RH  100%=      5-min Rain = 0
KAM1 071421Z 02014KT M03/M03 A3046 RMK A01 T10251025  RH  100%=      5-min Rain = 0
KAM1 071422Z 02016KT M03/M03 A3046 RMK A01 T10251025  RH  100%=      5-min Rain = 0
KAM1 071423Z 02015KT M03/M03 A3046 RMK A01 T10251025  RH  100%=      5-min Rain = 0
KAM1 071424Z 01013KT M03/M03 A3046 RMK A01 T10251025  RH  100%=      5-min Rain = 0
KAM1 071425Z 01015KT M03/M03 A3046 RMK A01 T10251025  RH  100%=      5-min Rain = 0
KAM1 071426Z 01015G20KT M03/M03 A3046 RMK A01 T10251025  RH  100%=      5-min Rain = 0
KAM1 071427Z 01018KT M03/M03 A3046 RMK A01 T10251025  RH  100%=      5-min Rain = 0
KAM1 071428Z 01016KT M02/M03 A3046 RMK A01 T10241025  RH  100%=      5-min Rain = 0
KAM1 071429Z 01016KT M03/M03 A3046 RMK A01 T10251025  RH  100%=      5-min Rain = 0
KAM1 071430Z 02014G20KT M02/M02 A3046 RMK A01 T10241024  RH  100%=      5-min Rain = 0
KAM1 071431Z 01016G22KT M03/M03 A3046 RMK A01 T10251025  RH  100%=      5-min Rain = 0
KAM1 071432Z 01020KT M03/M03 A3046 RMK A01 T10251025  RH  100%=      5-min Rain = 0
KAM1 071433Z 01016KT M03/M03 A3046 RMK A01 T10251025  RH  100%=      5-min Rain = 0
KAM1 071434Z 01016KT M03/M03 A3046 RMK A01 T10251025  RH  100%=      5-min Rain = 0
KAM1 071435Z 01016G21KT M03/M03 A3046 RMK A01 T10251025  RH  100%=      5-min Rain = 0
KAM1 071436Z 02019KT M03/M03 A3046 RMK A01 T10251025  RH  100%=      5-min Rain = 0
KAM1 071437Z 01016KT M02/M03 A3046 RMK A01 T10241025  RH  100%=      5-min Rain = 0
KAM1 071438Z 02015G21KT M02/M03 A3046 RMK A01 T10241025  RH  100%=      5-min Rain = 0
KAM1 071439Z 01016G21KT M03/M03 A3046 RMK A01 T10251025  RH  100%=      5-min Rain = 0
KAM1 071440Z 01014KT M03/M03 A3046 RMK A01 T10251025  RH  100%=      5-min Rain = 0
KAM1 071441Z 00013KT M03/M03 A3046 RMK A01 T10251025  RH  100%=      5-min Rain = 0
KAM1 071442Z 00015KT M03/M03 A3046 RMK A01 T10251025  RH  100%=      5-min Rain = 0
KAM1 071443Z 01014KT M03/M03 A3047 RMK A01 T10251025  RH  100%=      5-min Rain = 0
KAM1 071444Z 00017KT M02/M03 A3047 RMK A01 T10241025  RH  100%=      5-min Rain = 0
KAM1 071445Z 00018KT M03/M03 A3047 RMK A01 T10251025  RH  100%=      5-min Rain = 0
KAM1 071446Z 01017KT M03/M03 A3047 RMK A01 T10251025  RH  100%=      5-min Rain = 0
KAM1 071447Z 00014KT M03/M03 A3047 RMK A01 T10251025  RH  100%=      5-min Rain = 0
KAM1 071448Z 00016KT M03/M03 A3047 RMK A01 T10251025  RH  100%=      5-min Rain = 0
KAM1 071449Z 36017KT M03/M03 A3047 RMK A01 T10251025  RH  100%=      5-min Rain = 0
KAM1 071450Z 00016G22KT M03/M03 A3047 RMK A01 T10251025  RH  100%=      5-min Rain = 0
KAM1 071451Z 36016G21KT M03/M03 A3047 RMK A01 T10251025  RH  100%=      5-min Rain = 0
KAM1 071452Z 00015KT M03/M03 A3047 RMK A01 T10251025  RH  100%=      5-min Rain = 0
KAM1 071453Z 00014KT M03/M03 A3047 RMK A01 T10251025  RH  100%=      5-min Rain = 0
KAM1 071454Z 36015KT M03/M03 A3047 RMK A01 T10261026  RH  100%=      5-min Rain = 0
KAM1 071455Z 01017KT M03/M03 A3047 RMK A01 T10251026  RH  100%=      5-min Rain = 0
KAM1 071456Z 01017G22KT M03/M03 A3047 RMK A01 T10261026  RH  100%=      5-min Rain = 0
KAM1 071457Z 01018G25KT M03/M03 A3047 RMK A01 T10261026  RH  100%=      5-min Rain = 0
KAM1 071458Z 01013G18KT M03/M03 A3047 RMK A01 T10271027  RH  100%=      5-min Rain = 0
KAM1 071459Z 01013KT M03/M03 A3047 RMK A01 T10261027  RH  100%=      5-min Rain = 0
KAM1 071500Z 01015KT M03/M03 A3047 RMK A01 T10261026  RH  100%=      5-min Rain = 0
KAM1 071501Z 01019G25KT M03/M03 A3047 RMK A01 T10261026  RH  100%=      5-min Rain = 0
KAM1 071502Z 01018KT M03/M03 A3047 RMK A01 T10261027  RH  100%=      5-min Rain = 0
KAM1 071503Z 01017G22KT M03/M03 A3047 RMK A01 T10271027  RH  100%=      5-min Rain = 0
KAM1 071504Z 01017KT M03/M03 A3047 RMK A01 T10271027  RH  100%=      5-min Rain = 0
KAM1 071505Z 01016G23KT M03/M03 A3047 RMK A01 T10261027  RH  100%=      5-min Rain = 0
KAM1 071506Z 36016KT M03/M03 A3047 RMK A01 T10261026  RH  100%=      5-min Rain = 0
KAM1 071507Z 01014KT M03/M03 A3048 RMK A01 T10271027  RH  100%=      5-min Rain = 0
KAM1 071508Z 01018KT M03/M03 A3048 RMK A01 T10271027  RH  100%=      5-min Rain = 0
KAM1 071509Z 00021G26KT M03/M03 A3048 RMK A01 T10271028  RH  100%=      5-min Rain = 0
KAM1 071510Z 00018KT M03/M03 A3048 RMK A01 T10271029  RH  099%=      5-min Rain = 0
KAM1 071511Z 01017G22KT M03/M03 A3048 RMK A01 T10281030  RH  099%=      5-min Rain = 0
KAM1 071512Z 01018G24KT M03/M03 A3048 RMK A01 T10271030  RH  098%=      5-min Rain = 0
KAM1 071513Z 01020KT M03/M03 A3048 RMK A01 T10271030  RH  098%=      5-min Rain = 0
KAM1 071514Z 01018G23KT M03/M03 A3048 RMK A01 T10271031  RH  098%=      5-min Rain = 0
KAM1 071515Z 01017G23KT M03/M03 A3048 RMK A01 T10271031  RH  097%=      5-min Rain = 0
KAM1 071516Z 01015KT M03/M03 A3048 RMK A01 T10271031  RH  098%=      5-min Rain = 0
KAM1 071517Z 01018KT M03/M03 A3048 RMK A01 T10271030  RH  098%=      5-min Rain = 0
KAM1 071518Z 01018G23KT M03/M03 A3048 RMK A01 T10271031  RH  097%=      5-min Rain = 0
KAM1 071519Z 00014KT M03/M03 A3048 RMK A01 T10281031  RH  097%=      5-min Rain = 0
KAM1 071520Z 00015KT M03/M03 A3048 RMK A01 T10281031  RH  098%=      5-min Rain = 0
KAM1 071521Z 01013KT M03/M03 A3049 RMK A01 T10271030  RH  098%=      5-min Rain = 0
KAM1 071522Z 01013KT M03/M03 A3049 RMK A01 T10271030  RH  098%=      5-min Rain = 0
KAM1 071523Z 01015KT M03/M03 A3049 RMK A01 T10271030  RH  098%=      5-min Rain = 0
KAM1 071524Z 01015G21KT M03/M03 A3049 RMK A01 T10281031  RH  098%=      5-min Rain = 0
KAM1 071525Z 00015KT M03/M03 A3049 RMK A01 T10271030  RH  098%=      5-min Rain = 0
KAM1 071526Z 01014KT M03/M03 A3049 RMK A01 T10271030  RH  098%=      5-min Rain = 0
KAM1 071527Z 01017KT M03/M03 A3049 RMK A01 T10271030  RH  098%=      5-min Rain = 0
KAM1 071528Z 00018G23KT M03/M03 A3049 RMK A01 T10271031  RH  098%=      5-min Rain = 0
KAM1 071529Z 01018KT M03/M03 A3049 RMK A01 T10271031  RH  097%=      5-min Rain = 0
KAM1 071530Z 01018KT M03/M03 A3049 RMK A01 T10271031  RH  097%=      5-min Rain = 0
KAM1 071531Z 00015KT M03/M03 A3049 RMK A01 T10271032  RH  097%=      5-min Rain = 0
KAM1 071532Z 00017G22KT M03/M03 A3049 RMK A01 T10271032  RH  097%=      5-min Rain = 0
KAM1 071533Z 01015KT M03/M03 A3049 RMK A01 T10271032  RH  097%=      5-min Rain = 0
KAM1 071534Z 00018KT M03/M03 A3049 RMK A01 T10271032  RH  097%=      5-min Rain = 0
KAM1 071535Z 01013KT M03/M03 A3049 RMK A01 T10271032  RH  097%=      5-min Rain = 0
KAM1 071536Z 01015KT M03/M03 A3049 RMK A01 T10271032  RH  097%=      5-min Rain = 0
KAM1 071537Z 01014KT M03/M03 A3049 RMK A01 T10271032  RH  097%=      5-min Rain = 0
KAM1 071538Z 01013G18KT M03/M03 A3049 RMK A01 T10271032  RH  096%=      5-min Rain = 0
KAM1 071539Z 01015G21KT M03/M03 A305 RMK A01 T10271032  RH  096%=      5-min Rain = 0
KAM1 071540Z 01015KT M03/M03 A305 RMK A01 T10271033  RH  096%=      5-min Rain = 0
KAM1 071541Z 01016G22KT M03/M03 A305 RMK A01 T10271033  RH  095%=      5-min Rain = 0
KAM1 071542Z 02016KT M03/M03 A305 RMK A01 T10271033  RH  095%=      5-min Rain = 0
KAM1 071543Z 01016G21KT M03/M03 A305 RMK A01 T10271034  RH  095%=      5-min Rain = 0
KAM1 071544Z 01017KT M03/M04 A305 RMK A01 T10271035  RH  095%=      5-min Rain = 0
KAM1 071545Z 01017KT M03/M04 A305 RMK A01 T10271035  RH  094%=      5-min Rain = 0
KAM1 071546Z 01017KT M03/M04 A305 RMK A01 T10271035  RH  095%=      5-min Rain = 0
KAM1 071547Z 01020KT M03/M04 A305 RMK A01 T10271035  RH  094%=      5-min Rain = 0
KAM1 071548Z 01019KT M03/M04 A305 RMK A01 T10271036  RH  094%=      5-min Rain = 0
KAM1 071549Z 01016KT M03/M04 A3049 RMK A01 T10271036  RH  093%=      5-min Rain = 0
KAM1 071550Z 02017KT M03/M04 A3049 RMK A01 T10271035  RH  094%=      5-min Rain = 0
KAM1 071551Z 01018KT M03/M04 A3049 RMK A01 T10261036  RH  094%=      5-min Rain = 0
KAM1 071552Z 02015G20KT M03/M04 A3049 RMK A01 T10261035  RH  093%=      5-min Rain = 0
KAM1 071553Z 02014KT M03/M04 A3049 RMK A01 T10261035  RH  093%=      5-min Rain = 0
KAM1 071554Z 02013G18KT M03/M04 A3049 RMK A01 T10261035  RH  094%=      5-min Rain = 0
KAM1 071555Z 01015KT M03/M03 A3049 RMK A01 T10261034  RH  094%=      5-min Rain = 0
KAM1 071556Z 01014G19KT M03/M03 A3049 RMK A01 T10251034  RH  094%=      5-min Rain = 0
KAM1 071557Z 01016G21KT M03/M03 A3049 RMK A01 T10251034  RH  094%=      5-min Rain = 0
KAM1 071558Z 01021KT M03/M03 A3049 RMK A01 T10251034  RH  094%=      5-min Rain = 0
KAM1 071559Z 01016G21KT M03/M04 A3049 RMK A01 T10251035  RH  093%=      5-min Rain = 0
KAM1 071600Z 01018G23KT M03/M04 A3049 RMK A01 T10251035  RH  093%=      5-min Rain = 0
KAM1 071601Z 01018KT M03/M04 A3049 RMK A01 T10251035  RH  093%=      5-min Rain = 0
KAM1 071602Z 01017KT M03/M04 A3049 RMK A01 T10251035  RH  093%=      5-min Rain = 0
KAM1 071603Z 00015KT M03/M03 A3049 RMK A01 T10251034  RH  094%=      5-min Rain = 0
KAM1 071604Z 01016KT M03/M03 A3049 RMK A01 T10251033  RH  094%=      5-min Rain = 0
KAM1 071605Z 01015KT M03/M03 A3049 RMK A01 T10251033  RH  094%=      5-min Rain = 0
KAM1 071606Z 01018G23KT M02/M03 A3049 RMK A01 T10241032  RH  094%=      5-min Rain = 0
KAM1 071607Z 01018KT M02/M03 A3049 RMK A01 T10241032  RH  094%=      5-min Rain = 0
KAM1 071608Z 00016G21KT M02/M03 A3049 RMK A01 T10241032  RH  094%=      5-min Rain = 0
KAM1 071609Z 00017KT M03/M03 A3049 RMK A01 T10251032  RH  095%=      5-min Rain = 0
KAM1 071610Z 01014G20KT M03/M03 A3049 RMK A01 T10251032  RH  095%=      5-min Rain = 0
KAM1 071611Z 01012KT M03/M03 A3049 RMK A01 T10251031  RH  096%=      5-min Rain = 0
KAM1 071612Z 00013KT M03/M03 A3048 RMK A01 T10251030  RH  097%=      5-min Rain = 0
KAM1 071613Z 01013KT M03/M03 A3048 RMK A01 T10251029  RH  097%=      5-min Rain = 0
KAM1 071614Z 00015KT M03/M03 A3048 RMK A01 T10251028  RH  098%=      5-min Rain = 0
KAM1 071615Z 01012G21KT M03/M03 A3048 RMK A01 T10251028  RH  098%=      5-min Rain = 0
KAM1 071616Z 01017G23KT M03/M03 A3048 RMK A01 T10251027  RH  098%=      5-min Rain = 0
KAM1 071617Z 01016KT M03/M03 A3048 RMK A01 T10251028  RH  098%=      5-min Rain = 0
KAM1 071618Z 00016KT M03/M03 A3048 RMK A01 T10251028  RH  098%=      5-min Rain = 0
KAM1 071619Z 01015KT M03/M03 A3048 RMK A01 T10251027  RH  099%=      5-min Rain = 0
KAM1 071620Z 01015KT M03/M03 A3048 RMK A01 T10251027  RH  099%=      5-min Rain = 0
KAM1 071621Z 01012G18KT M03/M03 A3048 RMK A01 T10251026  RH  099%=      5-min Rain = 0
KAM1 071622Z 01013KT M03/M03 A3048 RMK A01 T10251025  RH  100%=      5-min Rain = 0
KAM1 071623Z 01015G20KT M03/M03 A3049 RMK A01 T10251025  RH  100%=      5-min Rain = 0
KAM1 071624Z 01016KT M03/M03 A3048 RMK A01 T10251025  RH  100%=      5-min Rain = 0
KAM1 071625Z 01014G19KT M03/M03 A3048 RMK A01 T10251026  RH  100%=      5-min Rain = 0
KAM1 071626Z 01017KT M03/M03 A3048 RMK A01 T10251025  RH  100%=      5-min Rain = 0
KAM1 071627Z 01016KT M03/M03 A3048 RMK A01 T10251025  RH  100%=      5-min Rain = 0
KAM1 071628Z 02017KT M03/M03 A3048 RMK A01 T10251025  RH  100%=      5-min Rain = 0
KAM1 071629Z 01013KT M03/M03 A3048 RMK A01 T10251026  RH  100%=      5-min Rain = 0
KAM1 071630Z 01014KT M03/M03 A3048 RMK A01 T10251025  RH  100%=      5-min Rain = 0
KAM1 071631Z 01016KT M03/M03 A3048 RMK A01 T10251025  RH  100%=      5-min Rain = 0
KAM1 071632Z 01017KT M03/M03 A3049 RMK A01 T10251025  RH  100%=      5-min Rain = 0
KAM1 071633Z 01017G22KT M03/M03 A3049 RMK A01 T10251025  RH  100%=      5-min Rain = 0
KAM1 071634Z 00017KT M03/M03 A3049 RMK A01 T10251025  RH  100%=      5-min Rain = 0
KAM1 071635Z 00014KT M03/M03 A3049 RMK A01 T10251025  RH  100%=      5-min Rain = 0
KAM1 071636Z 01015G20KT M03/M03 A3049 RMK A01 T10251025  RH  100%=      5-min Rain = 0
KAM1 071637Z 00017KT M03/M03 A3049 RMK A01 T10251025  RH  100%=      5-min Rain = 0
KAM1 071638Z 00015KT M03/M03 A3049 RMK A01 T10251025  RH  100%=      5-min Rain = 0
KAM1 071639Z 01017KT M03/M03 A3049 RMK A01 T10251025  RH  100%=      5-min Rain = 0
KAM1 071640Z 01016KT M03/M03 A305 RMK A01 T10251025  RH  100%=      5-min Rain = 0
KAM1 071641Z 01014KT M03/M03 A305 RMK A01 T10251025  RH  100%=      5-min Rain = 0
KAM1 071642Z 36014KT M02/M03 A3049 RMK A01 T10241025  RH  100%=      5-min Rain = 0
KAM1 071643Z 01016KT M02/M02 A3049 RMK A01 T10241024  RH  100%=      5-min Rain = 0
KAM1 071644Z 00017KT M03/M03 A3049 RMK A01 T10251025  RH  100%=      5-min Rain = 0
KAM1 071645Z 01015KT M03/M03 A3049 RMK A01 T10251025  RH  100%=      5-min Rain = 0
KAM1 071646Z 01014KT M03/M03 A3049 RMK A01 T10251025  RH  100%=      5-min Rain = 0
KAM1 071647Z 36017KT M03/M03 A3049 RMK A01 T10251025  RH  100%=      5-min Rain = 0
KAM1 071648Z 00014KT M03/M03 A3049 RMK A01 T10251025  RH  100%=      5-min Rain = 0
KAM1 071649Z 36014KT M02/M03 A3049 RMK A01 T10241025  RH  100%=      5-min Rain = 0
KAM1 071650Z 00015KT M02/M03 A305 RMK A01 T10241025  RH  100%=      5-min Rain = 0
KAM1 071651Z 00014KT M02/M02 A305 RMK A01 T10241024  RH  100%=      5-min Rain = 0
KAM1 071652Z 01014KT M02/M02 A305 RMK A01 T10241024  RH  100%=      5-min Rain = 0
KAM1 071653Z 00013KT M02/M02 A305 RMK A01 T10241024  RH  100%=      5-min Rain = 0
KAM1 071654Z 00012G19KT M02/M02 A305 RMK A01 T10241024  RH  100%=      5-min Rain = 0
KAM1 071655Z 00014G19KT M02/M02 A305 RMK A01 T10241024  RH  100%=      5-min Rain = 0
KAM1 071656Z 01012KT M02/M02 A305 RMK A01 T10241024  RH  100%=      5-min Rain = 0
KAM1 071657Z 01015KT M02/M02 A305 RMK A01 T10241024  RH  100%=      5-min Rain = 0
KAM1 071658Z 36015KT M02/M02 A305 RMK A01 T10241024  RH  100%=      5-min Rain = 0
KAM1 071659Z 00016KT M02/M03 A305 RMK A01 T10241025  RH  100%=      5-min Rain = 0
KAM1 071700Z 00016KT M03/M03 A305 RMK A01 T10251025  RH  100%=      5-min Rain = 0
KAM1 071701Z 01015KT M03/M03 A305 RMK A01 T10251025  RH  100%=      5-min Rain = 0
KAM1 071702Z 01017KT M03/M03 A305 RMK A01 T10251025  RH  100%=      5-min Rain = 0
KAM1 071703Z 01017G23KT M03/M03 A305 RMK A01 T10251025  RH  100%=      5-min Rain = 0
KAM1 071704Z 01017KT M03/M03 A305 RMK A01 T10251026  RH  100%=      5-min Rain = 0
KAM1 071705Z 01017KT M03/M03 A305 RMK A01 T10251026  RH  100%=      5-min Rain = 0
KAM1 071706Z 00016KT M03/M03 A305 RMK A01 T10251026  RH  100%=      5-min Rain = 0
KAM1 071707Z 00014KT M03/M03 A305 RMK A01 T10251026  RH  100%=      5-min Rain = 0
KAM1 071708Z 01012G17KT M03/M03 A305 RMK A01 T10251025  RH  100%=      5-min Rain = 0
KAM1 071709Z 01017KT M03/M03 A305 RMK A01 T10251025  RH  100%=      5-min Rain = 0
KAM1 071710Z 01015KT M03/M03 A305 RMK A01 T10251025  RH  100%=      5-min Rain = 0
KAM1 071711Z 01013KT M03/M03 A305 RMK A01 T10251026  RH  100%=      5-min Rain = 0
KAM1 071712Z 01012KT M03/M03 A305 RMK A01 T10251025  RH  100%=      5-min Rain = 0
KAM1 071713Z 01013KT M03/M03 A305 RMK A01 T10251025  RH  100%=      5-min Rain = 0
KAM1 071714Z 01015G20KT M03/M03 A305 RMK A01 T10251025  RH  100%=      5-min Rain = 0
KAM1 071715Z 01018KT M02/M03 A305 RMK A01 T10241025  RH  100%=      5-min Rain = 0
KAM1 071716Z 01016G21KT M03/M03 A305 RMK A01 T10251025  RH  100%=      5-min Rain = 0
KAM1 071717Z 00016KT M03/M03 A305 RMK A01 T10251025  RH  100%=      5-min Rain = 0
KAM1 071718Z 01013KT M03/M03 A305 RMK A01 T10251025  RH  100%=      5-min Rain = 0
KAM1 071719Z 01014G20KT M03/M03 A305 RMK A01 T10251025  RH  100%=      5-min Rain = 0
KAM1 071720Z 01015KT M03/M03 A305 RMK A01 T10251025  RH  100%=      5-min Rain = 0
KAM1 071721Z 01013KT M03/M03 A305 RMK A01 T10251025  RH  100%=      5-min Rain = 0
KAM1 071722Z 01015KT M03/M03 A305 RMK A01 T10251025  RH  100%=      5-min Rain = 0
KAM1 071723Z 01016KT M03/M03 A305 RMK A01 T10251025  RH  100%=      5-min Rain = 0
KAM1 071724Z 01015KT M03/M03 A305 RMK A01 T10251025  RH  100%=      5-min Rain = 0
KAM1 071725Z 01017KT M03/M03 A305 RMK A01 T10251025  RH  100%=      5-min Rain = 0
KAM1 071726Z 01012KT M03/M03 A305 RMK A01 T10251025  RH  100%=      5-min Rain = 0
KAM1 071727Z 01011G16KT M03/M03 A305 RMK A01 T10251025  RH  100%=      5-min Rain = 0
KAM1 071728Z 02010KT M02/M03 A305 RMK A01 T10241025  RH  100%=      5-min Rain = 0
KAM1 071729Z 02012KT M02/M02 A305 RMK A01 T10241024  RH  100%=      5-min Rain = 0
KAM1 071730Z 01013G19KT M02/M02 A305 RMK A01 T10241024  RH  100%=      5-min Rain = 0
KAM1 071731Z 02012KT M02/M02 A305 RMK A01 T10241024  RH  100%=      5-min Rain = 0
KAM1 071732Z 01013KT M03/M03 A305 RMK A01 T10251025  RH  100%=      5-min Rain = 0
KAM1 071733Z 01013KT M03/M03 A305 RMK A01 T10251025  RH  100%=      5-min Rain = 0
KAM1 071734Z 01012G19KT M03/M03 A305 RMK A01 T10251025  RH  100%=      5-min Rain = 0
KAM1 071735Z 01012G17KT M03/M03 A305 RMK A01 T10251026  RH  100%=      5-min Rain = 0
KAM1 071736Z 02015KT M03/M03 A305 RMK A01 T10261027  RH  099%=      5-min Rain = 0
KAM1 071737Z 01012KT M03/M03 A305 RMK A01 T10261028  RH  099%=      5-min Rain = 0
KAM1 071738Z 02012KT M03/M03 A305 RMK A01 T10261028  RH  099%=      5-min Rain = 0
KAM1 071739Z 01011KT M03/M03 A305 RMK A01 T10261028  RH  099%=      5-min Rain = 0
KAM1 071740Z 01016KT M03/M03 A305 RMK A01 T10261028  RH  099%=      5-min Rain = 0
KAM1 071741Z 01016KT M03/M03 A305 RMK A01 T10261028  RH  098%=      5-min Rain = 0
KAM1 071742Z 01014KT M03/M03 A305 RMK A01 T10261028  RH  098%=      5-min Rain = 0
KAM1 071743Z 01016KT M03/M03 A305 RMK A01 T10261028  RH  099%=      5-min Rain = 0
KAM1 071744Z 01013KT M03/M03 A305 RMK A01 T10261027  RH  099%=      5-min Rain = 0
KAM1 071745Z 00013KT M03/M03 A305 RMK A01 T10261027  RH  099%=      5-min Rain = 0
KAM1 071746Z 01015KT M03/M03 A305 RMK A01 T10251027  RH  099%=      5-min Rain = 0
KAM1 071747Z 01016KT M03/M03 A305 RMK A01 T10261028  RH  098%=      5-min Rain = 0
KAM1 071748Z 01011KT M03/M03 A305 RMK A01 T10261029  RH  098%=      5-min Rain = 0
KAM1 071749Z 01012KT M03/M03 A305 RMK A01 T10261029  RH  098%=      5-min Rain = 0
KAM1 071750Z 02014KT M03/M03 A305 RMK A01 T10251027  RH  099%=      5-min Rain = 0
KAM1 071751Z 02015KT M03/M03 A305 RMK A01 T10261028  RH  098%=      5-min Rain = 0
KAM1 071752Z 01011KT M03/M03 A305 RMK A01 T10261028  RH  099%=      5-min Rain = 0
KAM1 071753Z 01013KT M03/M03 A3051 RMK A01 T10261026  RH  099%=      5-min Rain = 0
KAM1 071754Z 02011KT M03/M03 A3051 RMK A01 T10261026  RH  100%=      5-min Rain = 0
KAM1 071755Z 01013KT M03/M03 A3051 RMK A01 T10261026  RH  100%=      5-min Rain = 0
KAM1 071756Z 01009KT M03/M03 A305 RMK A01 T10261026  RH  100%=      5-min Rain = 0
KAM1 071757Z 01011KT M03/M03 A305 RMK A01 T10251025  RH  100%=      5-min Rain = 0
KAM1 071758Z 01009KT M03/M03 A305 RMK A01 T10251025  RH  100%=      5-min Rain = 0
KAM1 071759Z 00011G16KT M03/M03 A305 RMK A01 T10251025  RH  100%=      5-min Rain = 0
KAM1 071800Z 01011KT M03/M03 A305 RMK A01 T10251025  RH  100%=      5-min Rain = 0
KAM1 071801Z 01011KT M03/M03 A305 RMK A01 T10251026  RH  100%=      5-min Rain = 0
KAM1 071802Z 00013KT M03/M03 A305 RMK A01 T10251025  RH  100%=      5-min Rain = 0
KAM1 071803Z 01012KT M03/M03 A305 RMK A01 T10251025  RH  100%=      5-min Rain = 0
KAM1 071804Z 01010KT M03/M03 A305 RMK A01 T10251025  RH  100%=      5-min Rain = 0
KAM1 071805Z 01011KT M02/M03 A305 RMK A01 T10241025  RH  100%=      5-min Rain = 0
KAM1 071806Z 00011KT M02/M02 A305 RMK A01 T10241024  RH  100%=      5-min Rain = 0
KAM1 071807Z 01011KT M02/M02 A305 RMK A01 T10241024  RH  100%=      5-min Rain = 0
KAM1 071808Z 01012G17KT M02/M02 A305 RMK A01 T10241024  RH  100%=      5-min Rain = 0
KAM1 071809Z 01013KT M03/M03 A305 RMK A01 T10251025  RH  100%=      5-min Rain = 0
KAM1 071810Z 01012KT M03/M03 A305 RMK A01 T10251025  RH  100%=      5-min Rain = 0
KAM1 071811Z 01014KT M03/M03 A305 RMK A01 T10251025  RH  100%=      5-min Rain = 0
KAM1 071812Z 01012KT M03/M03 A305 RMK A01 T10251025  RH  100%=      5-min Rain = 0
KAM1 071813Z 01013KT M03/M03 A305 RMK A01 T10251025  RH  100%=      5-min Rain = 0
KAM1 071814Z 01014KT M03/M03 A305 RMK A01 T10251025  RH  100%=      5-min Rain = 0
KAM1 071815Z 01014KT M03/M03 A305 RMK A01 T10251025  RH  100%=      5-min Rain = 0
KAM1 071816Z 01013KT M03/M03 A305 RMK A01 T10251025  RH  100%=      5-min Rain = 0
KAM1 071817Z 01010KT M03/M03 A305 RMK A01 T10251025  RH  100%=      5-min Rain = 0
KAM1 071818Z 01012KT M03/M03 A305 RMK A01 T10251025  RH  100%=      5-min Rain = 0
KAM1 071819Z 01013KT M03/M03 A305 RMK A01 T10251025  RH  100%=      5-min Rain = 0
KAM1 071820Z 01013KT M02/M02 A305 RMK A01 T10241024  RH  100%=      5-min Rain = 0
KAM1 071821Z 01013KT M02/M02 A3049 RMK A01 T10241024  RH  100%=      5-min Rain = 0
KAM1 071822Z 02012KT M02/M02 A3049 RMK A01 T10241024  RH  100%=      5-min Rain = 0
KAM1 071823Z 01012KT M02/M02 A3049 RMK A01 T10231023  RH  100%=      5-min Rain = 0
KAM1 071824Z 01010KT M02/M02 A3049 RMK A01 T10231023  RH  100%=      5-min Rain = 0
KAM1 071825Z 01012KT M02/M02 A3049 RMK A01 T10221022  RH  100%=      5-min Rain = 0
KAM1 071826Z 01012KT M02/M02 A3049 RMK A01 T10221022  RH  100%=      5-min Rain = 0
KAM1 071827Z 01011KT M02/M02 A3049 RMK A01 T10221022  RH  100%=      5-min Rain = 0
KAM1 071828Z 01011KT M02/M02 A3049 RMK A01 T10211021  RH  100%=      5-min Rain = 0
KAM1 071829Z 01014KT M02/M02 A3049 RMK A01 T10211021  RH  100%=      5-min Rain = 0
KAM1 071830Z 01012KT M02/M02 A3049 RMK A01 T10211021  RH  100%=      5-min Rain = 0
KAM1 071831Z 01013KT M02/M02 A3049 RMK A01 T10201020  RH  100%=      5-min Rain = 0
KAM1 071832Z 01014KT M02/M02 A3048 RMK A01 T10201020  RH  100%=      5-min Rain = 0
KAM1 071833Z 01014KT M02/M02 A3048 RMK A01 T10201021  RH  100%=      5-min Rain = 0
KAM1 071834Z 01014KT M02/M02 A3048 RMK A01 T10211021  RH  100%=      5-min Rain = 0
KAM1 071835Z 01014KT M02/M02 A3048 RMK A01 T10211021  RH  100%=      5-min Rain = 0
KAM1 071836Z 01014KT M02/M02 A3048 RMK A01 T10211021  RH  100%=      5-min Rain = 0
KAM1 071837Z 01011KT M02/M02 A3048 RMK A01 T10211021  RH  100%=      5-min Rain = 0
KAM1 071838Z 01013KT M02/M02 A3048 RMK A01 T10211021  RH  100%=      5-min Rain = 0
KAM1 071839Z 01012KT M02/M02 A3048 RMK A01 T10201021  RH  100%=      5-min Rain = 0
KAM1 071840Z 01012KT M02/M02 A3048 RMK A01 T10211021  RH  100%=      5-min Rain = 0
KAM1 071841Z 01012KT M02/M02 A3048 RMK A01 T10211021  RH  100%=      5-min Rain = 0
KAM1 071842Z 01012KT M02/M02 A3048 RMK A01 T10211021  RH  100%=      5-min Rain = 0
KAM1 071843Z 01013KT M02/M02 A3048 RMK A01 T10211021  RH  100%=      5-min Rain = 0
KAM1 071844Z 00009KT M02/M02 A3048 RMK A01 T10221022  RH  100%=      5-min Rain = 0
KAM1 071845Z 01008KT M02/M02 A3048 RMK A01 T10211021  RH  100%=      5-min Rain = 0
KAM1 071846Z 01010G15KT M02/M02 A3048 RMK A01 T10201020  RH  100%=      5-min Rain = 0
KAM1 071847Z 01013KT M02/M02 A3048 RMK A01 T10191020  RH  100%=      5-min Rain = 0
KAM1 071848Z 02012KT M02/M02 A3048 RMK A01 T10211021  RH  100%=      5-min Rain = 0
KAM1 071849Z 02009KT M02/M02 A3048 RMK A01 T10221022  RH  100%=      5-min Rain = 0
KAM1 071850Z 01010KT M02/M02 A3048 RMK A01 T10211021  RH  100%=      5-min Rain = 0
KAM1 071851Z 01013KT M02/M02 A3048 RMK A01 T10201021  RH  100%=      5-min Rain = 0
KAM1 071852Z 02013KT M02/M02 A3048 RMK A01 T10221022  RH  100%=      5-min Rain = 0
KAM1 071853Z 02012KT M02/M02 A3048 RMK A01 T10221022  RH  100%=      5-min Rain = 0
KAM1 071854Z 01012KT M02/M02 A3048 RMK A01 T10221022  RH  100%=      5-min Rain = 0
KAM1 071855Z 01009KT M02/M02 A3048 RMK A01 T10221022  RH  100%=      5-min Rain = 0
KAM1 071856Z 01013KT M02/M02 A3048 RMK A01 T10211021  RH  100%=      5-min Rain = 0
KAM1 071857Z 01013KT M02/M02 A3048 RMK A01 T10211021  RH  100%=      5-min Rain = 0
KAM1 071858Z 00010KT M02/M02 A3048 RMK A01 T10211022  RH  100%=      5-min Rain = 0
KAM1 071859Z 01010KT M02/M02 A3048 RMK A01 T10211021  RH  100%=      5-min Rain = 0
KAM1 071900Z 01012KT M02/M02 A3048 RMK A01 T10211021  RH  100%=      5-min Rain = 0
KAM1 071901Z 00010KT M02/M02 A3047 RMK A01 T10211021  RH  100%=      5-min Rain = 0
KAM1 071902Z 01012KT M02/M02 A3047 RMK A01 T10201021  RH  100%=      5-min Rain = 0
KAM1 071903Z 01011KT M02/M02 A3047 RMK A01 T10211021  RH  100%=      5-min Rain = 0
KAM1 071904Z 01010KT M02/M02 A3047 RMK A01 T10211021  RH  100%=      5-min Rain = 0
KAM1 071905Z 01009KT M02/M02 A3047 RMK A01 T10201020  RH  100%=      5-min Rain = 0
KAM1 071906Z 01010KT M02/M02 A3047 RMK A01 T10191020  RH  100%=      5-min Rain = 0
KAM1 071907Z 01011KT M02/M02 A3047 RMK A01 T10191019  RH  100%=      5-min Rain = 0
KAM1 071908Z 01009KT M02/M02 A3047 RMK A01 T10201020  RH  100%=      5-min Rain = 0
KAM1 071909Z 01010KT M02/M02 A3047 RMK A01 T10201020  RH  100%=      5-min Rain = 0
KAM1 071910Z 01011KT M02/M02 A3047 RMK A01 T10201020  RH  100%=      5-min Rain = 0
KAM1 071911Z 00010KT M02/M02 A3047 RMK A01 T10201020  RH  100%=      5-min Rain = 0
KAM1 071912Z 00012KT M02/M02 A3047 RMK A01 T10201020  RH  100%=      5-min Rain = 0
KAM1 071913Z 01012KT M02/M02 A3047 RMK A01 T10201020  RH  100%=      5-min Rain = 0
KAM1 071914Z 01011KT M02/M02 A3047 RMK A01 T10201020  RH  100%=      5-min Rain = 0
KAM1 071915Z 00010KT M02/M02 A3047 RMK A01 T10211021  RH  100%=      5-min Rain = 0
KAM1 071916Z 01012KT M02/M02 A3047 RMK A01 T10211021  RH  100%=      5-min Rain = 0
KAM1 071917Z 01010KT M02/M02 A3047 RMK A01 T10211021  RH  100%=      5-min Rain = 0
KAM1 071918Z 01010KT M02/M02 A3047 RMK A01 T10201020  RH  100%=      5-min Rain = 0
KAM1 071919Z 00011KT M02/M02 A3047 RMK A01 T10201020  RH  100%=      5-min Rain = 0
KAM1 071920Z 01010KT M02/M02 A3047 RMK A01 T10201020  RH  100%=      5-min Rain = 0
KAM1 071921Z 36010KT M02/M02 A3047 RMK A01 T10201020  RH  100%=      5-min Rain = 0
KAM1 071922Z 01010KT M02/M02 A3047 RMK A01 T10201020  RH  100%=      5-min Rain = 0
KAM1 071923Z 01011KT M02/M02 A3047 RMK A01 T10201020  RH  100%=      5-min Rain = 0
KAM1 071924Z 01008KT M02/M02 A3047 RMK A01 T10201020  RH  100%=      5-min Rain = 0
KAM1 071925Z 01009KT M02/M02 A3047 RMK A01 T10201020  RH  100%=      5-min Rain = 0
KAM1 071926Z 01009KT M02/M02 A3046 RMK A01 T10201020  RH  100%=      5-min Rain = 0
KAM1 071927Z 01008KT M02/M02 A3046 RMK A01 T10191019  RH  100%=      5-min Rain = 0
KAM1 071928Z 01008KT M02/M02 A3046 RMK A01 T10191019  RH  100%=      5-min Rain = 0
KAM1 071929Z 01007KT M02/M02 A3046 RMK A01 T10181018  RH  100%=      5-min Rain = 0
KAM1 071930Z 01006KT M02/M02 A3046 RMK A01 T10181018  RH  100%=      5-min Rain = 0
KAM1 071931Z 01007KT M02/M02 A3046 RMK A01 T10181018  RH  100%=      5-min Rain = 0
KAM1 071932Z 01006KT M02/M02 A3046 RMK A01 T10181018  RH  100%=      5-min Rain = 0
KAM1 071933Z 00006KT M02/M02 A3046 RMK A01 T10171017  RH  100%=      5-min Rain = 0
KAM1 071934Z 01008KT M02/M02 A3046 RMK A01 T10171017  RH  100%=      5-min Rain = 0
KAM1 071935Z 01006KT M02/M02 A3046 RMK A01 T10171018  RH  100%=      5-min Rain = 0
KAM1 071936Z 01006KT M02/M02 A3046 RMK A01 T10171017  RH  100%=      5-min Rain = 0
KAM1 071937Z 36006KT M02/M02 A3046 RMK A01 T10171017  RH  100%=      5-min Rain = 0
KAM1 071938Z 01006KT M02/M02 A3046 RMK A01 T10171017  RH  100%=      5-min Rain = 0
KAM1 071939Z 01008KT M02/M02 A3046 RMK A01 T10171017  RH  100%=      5-min Rain = 0
KAM1 071940Z 00008KT M02/M02 A3046 RMK A01 T10171018  RH  100%=      5-min Rain = 0
KAM1 071941Z 00007KT M02/M02 A3046 RMK A01 T10181018  RH  100%=      5-min Rain = 0
KAM1 071942Z 00007KT M02/M02 A3046 RMK A01 T10181019  RH  100%=      5-min Rain = 0
KAM1 071943Z 00007KT M02/M02 A3046 RMK A01 T10181018  RH  100%=      5-min Rain = 0
KAM1 071944Z 01007KT M02/M02 A3046 RMK A01 T10181018  RH  100%=      5-min Rain = 0
KAM1 071945Z 01006KT M02/M02 A3046 RMK A01 T10181018  RH  100%=      5-min Rain = 0
KAM1 071946Z 01005KT M02/M02 A3046 RMK A01 T10181018  RH  100%=      5-min Rain = 0
KAM1 071947Z 00008KT M02/M02 A3046 RMK A01 T10171017  RH  100%=      5-min Rain = 0
KAM1 071948Z 01007KT M02/M02 A3046 RMK A01 T10181018  RH  100%=      5-min Rain = 0
KAM1 071949Z 00007KT M02/M02 A3046 RMK A01 T10181018  RH  100%=      5-min Rain = 0
KAM1 071950Z 00008KT M02/M02 A3046 RMK A01 T10181018  RH  100%=      5-min Rain = 0
KAM1 071951Z 01008KT M02/M02 A3046 RMK A01 T10181018  RH  100%=      5-min Rain = 0
KAM1 071952Z 01007KT M02/M02 A3046 RMK A01 T10191019  RH  100%=      5-min Rain = 0
KAM1 071953Z 01006KT M02/M02 A3046 RMK A01 T10191019  RH  100%=      5-min Rain = 0
KAM1 071954Z 01006KT M02/M02 A3046 RMK A01 T10181019  RH  100%=      5-min Rain = 0
KAM1 071955Z 01007KT M02/M02 A3046 RMK A01 T10181018  RH  100%=      5-min Rain = 0
KAM1 071956Z 01007KT M02/M02 A3046 RMK A01 T10181018  RH  100%=      5-min Rain = 0
KAM1 071957Z 00006KT M02/M02 A3046 RMK A01 T10181018  RH  100%=      5-min Rain = 0
KAM1 071958Z 00007KT M02/M02 A3046 RMK A01 T10181018  RH  100%=      5-min Rain = 0
KAM1 071959Z 01006KT M02/M02 A3046 RMK A01 T10181018  RH  100%=      5-min Rain = 0
KAM1 072000Z 36006KT M02/M02 A3046 RMK A01 T10181018  RH  100%=      5-min Rain = 0
KAM1 072001Z 00006KT M02/M02 A3046 RMK A01 T10181018  RH  100%=      5-min Rain = 0
KAM1 072002Z 35006KT M02/M02 A3046 RMK A01 T10181018  RH  100%=      5-min Rain = 0
KAM1 072003Z 35007KT M02/M02 A3045 RMK A01 T10181018  RH  100%=      5-min Rain = 0
KAM1 072004Z 01006KT M02/M02 A3046 RMK A01 T10181018  RH  100%=      5-min Rain = 0
KAM1 072005Z 01006KT M02/M02 A3045 RMK A01 T10181018  RH  100%=      5-min Rain = 0
KAM1 072006Z 00009KT M02/M02 A3045 RMK A01 T10181019  RH  100%=      5-min Rain = 0
KAM1 072007Z 00008KT M02/M02 A3045 RMK A01 T10191019  RH  100%=      5-min Rain = 0
KAM1 072008Z 01007KT M02/M02 A3045 RMK A01 T10191020  RH  100%=      5-min Rain = 0
KAM1 072009Z 01006KT M02/M02 A3045 RMK A01 T10191019  RH  100%=      5-min Rain = 0
KAM1 072010Z 01006KT M02/M02 A3045 RMK A01 T10191019  RH  100%=      5-min Rain = 0
KAM1 072011Z 01006KT M02/M02 A3045 RMK A01 T10191019  RH  100%=      5-min Rain = 0
KAM1 072012Z 00006KT M02/M02 A3045 RMK A01 T10191019  RH  100%=      5-min Rain = 0
KAM1 072013Z 01005KT M02/M02 A3045 RMK A01 T10181018  RH  100%=      5-min Rain = 0
KAM1 072014Z 01006KT M02/M02 A3045 RMK A01 T10181018  RH  100%=      5-min Rain = 0
KAM1 072015Z 00007KT M02/M02 A3045 RMK A01 T10171017  RH  100%=      5-min Rain = 0
KAM1 072016Z 00006KT M02/M02 A3045 RMK A01 T10171017  RH  100%=      5-min Rain = 0
KAM1 072017Z 01007KT M02/M02 A3045 RMK A01 T10171017  RH  100%=      5-min Rain = 0
KAM1 072018Z 00006KT M02/M02 A3045 RMK A01 T10171018  RH  100%=      5-min Rain = 0
KAM1 072019Z 36006KT M02/M02 A3045 RMK A01 T10171018  RH  100%=      5-min Rain = 0
KAM1 072020Z 01006KT M02/M02 A3045 RMK A01 T10171017  RH  100%=      5-min Rain = 0
KAM1 072021Z 01007KT M02/M02 A3045 RMK A01 T10171017  RH  100%=      5-min Rain = 0
KAM1 072022Z 01006KT M02/M02 A3045 RMK A01 T10171017  RH  100%=      5-min Rain = 0
KAM1 072023Z 01006KT M02/M02 A3045 RMK A01 T10161017  RH  100%=      5-min Rain = 0
KAM1 072024Z 02006KT M02/M02 A3045 RMK A01 T10171017  RH  100%=      5-min Rain = 0
KAM1 072025Z 01006KT M02/M02 A3045 RMK A01 T10171017  RH  100%=      5-min Rain = 0
KAM1 072026Z 01007KT M02/M02 A3045 RMK A01 T10171017  RH  100%=      5-min Rain = 0
KAM1 072027Z 01006KT M02/M02 A3045 RMK A01 T10171017  RH  100%=      5-min Rain = 0
KAM1 072028Z 01005KT M02/M02 A3045 RMK A01 T10161017  RH  100%=      5-min Rain = 0
KAM1 072029Z 01006KT M02/M02 A3045 RMK A01 T10161016  RH  100%=      5-min Rain = 0
KAM1 072030Z 01006KT M02/M02 A3045 RMK A01 T10161016  RH  100%=      5-min Rain = 0
KAM1 072031Z 00005KT M02/M02 A3045 RMK A01 T10161016  RH  100%=      5-min Rain = 0
KAM1 072032Z 00006KT M02/M02 A3045 RMK A01 T10161016  RH  100%=      5-min Rain = 0
KAM1 072033Z 00005KT M02/M02 A3045 RMK A01 T10151015  RH  100%=      5-min Rain = 0
KAM1 072034Z 00005KT M02/M02 A3045 RMK A01 T10151015  RH  100%=      5-min Rain = 0
KAM1 072035Z 01006KT M02/M02 A3045 RMK A01 T10151015  RH  100%=      5-min Rain = 0
KAM1 072036Z 01005KT M02/M02 A3045 RMK A01 T10151015  RH  100%=      5-min Rain = 0
KAM1 072037Z 01005KT M02/M02 A3045 RMK A01 T10151015  RH  100%=      5-min Rain = 0
KAM1 072038Z 02005KT M01/M01 A3045 RMK A01 T10141014  RH  100%=      5-min Rain = 0
KAM1 072039Z 01004KT M01/M01 A3045 RMK A01 T10141014  RH  100%=      5-min Rain = 0
KAM1 072040Z 01005KT M01/M01 A3045 RMK A01 T10131014  RH  100%=      5-min Rain = 0
KAM1 072041Z 01005KT M01/M01 A3044 RMK A01 T10131013  RH  100%=      5-min Rain = 0
KAM1 072042Z 02005KT M01/M01 A3044 RMK A01 T10131013  RH  100%=      5-min Rain = 0
KAM1 072043Z 01007KT M01/M01 A3044 RMK A01 T10131013  RH  100%=      5-min Rain = 0
KAM1 072044Z 00006KT M01/M01 A3044 RMK A01 T10131013  RH  100%=      5-min Rain = 0
KAM1 072045Z 02005KT M01/M01 A3044 RMK A01 T10141014  RH  100%=      5-min Rain = 0
KAM1 072046Z 02004KT M01/M01 A3044 RMK A01 T10131013  RH  100%=      5-min Rain = 0
KAM1 072047Z 02005KT M01/M01 A3044 RMK A01 T10131013  RH  100%=      5-min Rain = 0
KAM1 072048Z 02006KT M01/M01 A3044 RMK A01 T10131013  RH  100%=      5-min Rain = 0
KAM1 072049Z 02007KT M01/M01 A3044 RMK A01 T10121013  RH  100%=      5-min Rain = 0
KAM1 072050Z 02006KT M01/M01 A3044 RMK A01 T10131013  RH  100%=      5-min Rain = 0
KAM1 072051Z 01006KT M01/M01 A3044 RMK A01 T10131013  RH  100%=      5-min Rain = 0
KAM1 072052Z 01007KT M01/M01 A3044 RMK A01 T10131013  RH  100%=      5-min Rain = 0
KAM1 072053Z 01007KT M01/M01 A3044 RMK A01 T10121012  RH  100%=      5-min Rain = 0
KAM1 072054Z 01006KT M01/M01 A3044 RMK A01 T10131013  RH  100%=      5-min Rain = 0
KAM1 072055Z 01006KT M01/M01 A3044 RMK A01 T10131013  RH  100%=      5-min Rain = 0
KAM1 072056Z 01007KT M01/M01 A3044 RMK A01 T10131013  RH  100%=      5-min Rain = 0
KAM1 072057Z 01006KT M01/M01 A3044 RMK A01 T10131013  RH  100%=      5-min Rain = 0
KAM1 072058Z 01006KT M01/M01 A3044 RMK A01 T10121013  RH  100%=      5-min Rain = 0
KAM1 072059Z 00006KT M01/M01 A3044 RMK A01 T10121012  RH  100%=      5-min Rain = 0
KAM1 072100Z 01006KT M01/M01 A3044 RMK A01 T10111011  RH  100%=      5-min Rain = 0
KAM1 072101Z 00006KT M01/M01 A3044 RMK A01 T10111012  RH  100%=      5-min Rain = 0
KAM1 072102Z 01006KT M01/M01 A3044 RMK A01 T10111012  RH  100%=      5-min Rain = 0
KAM1 072103Z 01007KT M01/M01 A3044 RMK A01 T10111012  RH  100%=      5-min Rain = 0
KAM1 072104Z 01005KT M01/M01 A3044 RMK A01 T10121012  RH  100%=      5-min Rain = 0
KAM1 072105Z 00006KT M01/M01 A3044 RMK A01 T10121012  RH  100%=      5-min Rain = 0
KAM1 072106Z 01007KT M01/M01 A3044 RMK A01 T10121012  RH  100%=      5-min Rain = 0
KAM1 072107Z 01006KT M01/M01 A3044 RMK A01 T10111012  RH  100%=      5-min Rain = 0
KAM1 072108Z 02006KT M01/M01 A3044 RMK A01 T10111012  RH  100%=      5-min Rain = 0
KAM1 072109Z 01005KT M01/M01 A3044 RMK A01 T10111012  RH  100%=      5-min Rain = 0
KAM1 072110Z 00006KT M01/M01 A3044 RMK A01 T10121012  RH  100%=      5-min Rain = 0
KAM1 072111Z 00005KT M01/M01 A3044 RMK A01 T10111012  RH  100%=      5-min Rain = 0
KAM1 072112Z 36005KT M01/M01 A3044 RMK A01 T10121012  RH  100%=      5-min Rain = 0
KAM1 072113Z 00005KT M01/M01 A3044 RMK A01 T10111012  RH  100%=      5-min Rain = 0
KAM1 072114Z 01004KT M01/M01 A3044 RMK A01 T10121012  RH  100%=      5-min Rain = 0
KAM1 072115Z 00004KT M01/M01 A3044 RMK A01 T10121012  RH  100%=      5-min Rain = 0
KAM1 072116Z 01004KT M01/M01 A3044 RMK A01 T10121012  RH  100%=      5-min Rain = 0
KAM1 072117Z 00005KT M01/M01 A3044 RMK A01 T10111011  RH  100%=      5-min Rain = 0
KAM1 072118Z 36005KT M01/M01 A3044 RMK A01 T10111012  RH  100%=      5-min Rain = 0
KAM1 072119Z 36004KT M01/M01 A3045 RMK A01 T10111012  RH  100%=      5-min Rain = 0
KAM1 072120Z 36005KT M01/M01 A3045 RMK A01 T10111011  RH  100%=      5-min Rain = 0
KAM1 072121Z 00005KT M01/M01 A3044 RMK A01 T10111011  RH  100%=      5-min Rain = 0
KAM1 072122Z 35004KT M01/M01 A3044 RMK A01 T10111011  RH  100%=      5-min Rain = 0
KAM1 072123Z 35005KT M01/M01 A3044 RMK A01 T10101010  RH  100%=      5-min Rain = 0
KAM1 072124Z 35006KT M01/M01 A3044 RMK A01 T10101010  RH  100%=      5-min Rain = 0
KAM1 072125Z 35006KT M01/M01 A3045 RMK A01 T10101010  RH  100%=      5-min Rain = 0
KAM1 072126Z 36005KT M01/M01 A3045 RMK A01 T10101010  RH  100%=      5-min Rain = 0
KAM1 072127Z 36004KT M01/M01 A3045 RMK A01 T10101010  RH  100%=      5-min Rain = 0
KAM1 072128Z 35003KT M01/M01 A3045 RMK A01 T10101010  RH  100%=      5-min Rain = 0
KAM1 072129Z 36004KT M01/M01 A3045 RMK A01 T10101010  RH  100%=      5-min Rain = 0
KAM1 072130Z 35004KT M01/M01 A3045 RMK A01 T10091009  RH  100%=      5-min Rain = 0
KAM1 072131Z 35005KT M01/M01 A3045 RMK A01 T10091009  RH  100%=      5-min Rain = 0
KAM1 072132Z 34004KT M01/M01 A3045 RMK A01 T10091009  RH  100%=      5-min Rain = 0
KAM1 072133Z 34005KT M01/M01 A3044 RMK A01 T10091009  RH  100%=      5-min Rain = 0
KAM1 072134Z 35005KT M01/M01 A3045 RMK A01 T10101010  RH  100%=      5-min Rain = 0
KAM1 072135Z 35006KT M01/M01 A3045 RMK A01 T10101010  RH  100%=      5-min Rain = 0
KAM1 072136Z 36006KT M01/M01 A3045 RMK A01 T10101010  RH  100%=      5-min Rain = 0
KAM1 072137Z 36006KT M01/M01 A3045 RMK A01 T10091010  RH  100%=      5-min Rain = 0
KAM1 072138Z 35005KT M01/M01 A3044 RMK A01 T10101010  RH  100%=      5-min Rain = 0
KAM1 072139Z 35004KT M01/M01 A3044 RMK A01 T10101010  RH  100%=      5-min Rain = 0
KAM1 072140Z 34004KT M01/M01 A3044 RMK A01 T10091009  RH  100%=      5-min Rain = 0
KAM1 072141Z 34004KT M01/M01 A3044 RMK A01 T10081008  RH  100%=      5-min Rain = 0
KAM1 072142Z 36005KT M01/M01 A3044 RMK A01 T10081008  RH  100%=      5-min Rain = 0
KAM1 072143Z 00006KT M01/M01 A3044 RMK A01 T10081008  RH  100%=      5-min Rain = 0
KAM1 072144Z 00005KT M01/M01 A3044 RMK A01 T10081008  RH  100%=      5-min Rain = 0
KAM1 072145Z 00006KT M01/M01 A3044 RMK A01 T10081008  RH  100%=      5-min Rain = 0
KAM1 072146Z 00005KT M01/M01 A3044 RMK A01 T10081008  RH  100%=      5-min Rain = 0
KAM1 072147Z 35005KT M01/M01 A3044 RMK A01 T10081008  RH  100%=      5-min Rain = 0
KAM1 072148Z 36005KT M01/M01 A3044 RMK A01 T10081009  RH  100%=      5-min Rain = 0
KAM1 072149Z 35004KT M01/M01 A3045 RMK A01 T10081008  RH  100%=      5-min Rain = 0
KAM1 072150Z 34005KT M01/M01 A3045 RMK A01 T10081008  RH  100%=      5-min Rain = 0
KAM1 072151Z 35005KT M01/M01 A3045 RMK A01 T10081008  RH  100%=      5-min Rain = 0
KAM1 072152Z 34004KT M01/M01 A3045 RMK A01 T10081008  RH  100%=      5-min Rain = 0
KAM1 072153Z 34005KT M01/M01 A3045 RMK A01 T10081008  RH  100%=      5-min Rain = 0
KAM1 072154Z 35005KT M01/M01 A3045 RMK A01 T10081008  RH  100%=      5-min Rain = 0
KAM1 072155Z 35004KT M01/M01 A3045 RMK A01 T10081008  RH  100%=      5-min Rain = 0
KAM1 072156Z 35004KT M01/M01 A3045 RMK A01 T10081008  RH  100%=      5-min Rain = 0
KAM1 072157Z 36004KT M01/M01 A3045 RMK A01 T10081008  RH  100%=      5-min Rain = 0
KAM1 072158Z 35005KT M01/M01 A3045 RMK A01 T10081008  RH  100%=      5-min Rain = 0
KAM1 072159Z 34004KT M01/M01 A3045 RMK A01 T10071007  RH  100%=      5-min Rain = 0
KAM1 072200Z 34005KT M01/M01 A3045 RMK A01 T10071007  RH  100%=      5-min Rain = 0
KAM1 072201Z 35004KT M01/M01 A3045 RMK A01 T10071007  RH  100%=      5-min Rain = 0
KAM1 072202Z 34004KT M01/M01 A3045 RMK A01 T10071007  RH  100%=      5-min Rain = 0
KAM1 072203Z 35005KT M01/M01 A3045 RMK A01 T10071007  RH  100%=      5-min Rain = 0
KAM1 072204Z 34004KT M01/M01 A3045 RMK A01 T10071007  RH  100%=      5-min Rain = 0
KAM1 072205Z 34004KT M01/M01 A3045 RMK A01 T10071007  RH  100%=      5-min Rain = 0
KAM1 072206Z 35004KT M01/M01 A3045 RMK A01 T10071007  RH  100%=      5-min Rain = 0
KAM1 072207Z 35004KT M01/M01 A3045 RMK A01 T10071007  RH  100%=      5-min Rain = 0
KAM1 072208Z 34004KT M01/M01 A3044 RMK A01 T10071007  RH  100%=      5-min Rain = 0
KAM1 072209Z 35005KT M01/M01 A3044 RMK A01 T10071007  RH  100%=      5-min Rain = 0
KAM1 072210Z 36005KT M01/M01 A3044 RMK A01 T10071007  RH  100%=      5-min Rain = 0
KAM1 072211Z 36004KT M01/M01 A3044 RMK A01 T10061006  RH  100%=      5-min Rain = 0
KAM1 072212Z 36004KT M01/M01 A3044 RMK A01 T10061007  RH  100%=      5-min Rain = 0
KAM1 072213Z 35005KT M01/M01 A3044 RMK A01 T10061006  RH  100%=      5-min Rain = 0
KAM1 072214Z 36005KT M01/M01 A3044 RMK A01 T10061006  RH  100%=      5-min Rain = 0
KAM1 072215Z 35004KT M01/M01 A3044 RMK A01 T10061007  RH  100%=      5-min Rain = 0
KAM1 072216Z 35005KT M01/M01 A3044 RMK A01 T10061006  RH  100%=      5-min Rain = 0
KAM1 072217Z 35005KT M01/M01 A3044 RMK A01 T10071007  RH  100%=      5-min Rain = 0
KAM1 072218Z 35006KT M01/M01 A3044 RMK A01 T10071007  RH  100%=      5-min Rain = 0
KAM1 072219Z 35006KT M01/M01 A3044 RMK A01 T10061007  RH  100%=      5-min Rain = 0
KAM1 072220Z 34005KT M01/M01 A3044 RMK A01 T10061008  RH  099%=      5-min Rain = 0
KAM1 072221Z 35006KT M01/M01 A3044 RMK A01 T10061009  RH  099%=      5-min Rain = 0
KAM1 072222Z 35006KT M01/M01 A3044 RMK A01 T10071009  RH  098%=      5-min Rain = 0
KAM1 072223Z 35005KT M01/M01 A3044 RMK A01 T10071010  RH  098%=      5-min Rain = 0
KAM1 072224Z 34004KT M01/M01 A3045 RMK A01 T10071010  RH  098%=      5-min Rain = 0
KAM1 072225Z 35004KT M01/M01 A3045 RMK A01 T10071008  RH  099%=      5-min Rain = 0
KAM1 072226Z 35004KT M01/M01 A3045 RMK A01 T10071009  RH  099%=      5-min Rain = 0
KAM1 072227Z 35005KT M01/M01 A3045 RMK A01 T10061008  RH  099%=      5-min Rain = 0
KAM1 072228Z 35006KT M01/M01 A3045 RMK A01 T10061009  RH  099%=      5-min Rain = 0
KAM1 072229Z 36005KT M01/M01 A3045 RMK A01 T10071010  RH  098%=      5-min Rain = 0
KAM1 072230Z 35005KT M01/M01 A3045 RMK A01 T10061009  RH  098%=      5-min Rain = 0
KAM1 072231Z 35005KT M01/M01 A3045 RMK A01 T10061009  RH  098%=      5-min Rain = 0
KAM1 072232Z 35005KT M01/M01 A3045 RMK A01 T10061009  RH  098%=      5-min Rain = 0
KAM1 072233Z 36005KT M01/M01 A3045 RMK A01 T10061009  RH  098%=      5-min Rain = 0
KAM1 072234Z 00005KT M01/M01 A3045 RMK A01 T10061008  RH  098%=      5-min Rain = 0
KAM1 072235Z 36005KT M01/M01 A3045 RMK A01 T10061008  RH  098%=      5-min Rain = 0
KAM1 072236Z 36005KT M01/M01 A3045 RMK A01 T10061008  RH  098%=      5-min Rain = 0
KAM1 072237Z 35004KT M01/M01 A3045 RMK A01 T10061009  RH  098%=      5-min Rain = 0
KAM1 072238Z 35004KT M01/M01 A3045 RMK A01 T10051008  RH  098%=      5-min Rain = 0
KAM1 072239Z 36004KT M01/M01 A3045 RMK A01 T10051007  RH  099%=      5-min Rain = 0
KAM1 072240Z 00005KT M01/M01 A3045 RMK A01 T10051007  RH  099%=      5-min Rain = 0
KAM1 072241Z 00005KT M01/M01 A3045 RMK A01 T10051008  RH  098%=      5-min Rain = 0
KAM1 072242Z 36005KT M01/M01 A3045 RMK A01 T10051009  RH  097%=      5-min Rain = 0
KAM1 072243Z 35005KT M01/M01 A3045 RMK A01 T10051009  RH  097%=      5-min Rain = 0
KAM1 072244Z 36006KT M01/M01 A3045 RMK A01 T10051009  RH  097%=      5-min Rain = 0
KAM1 072245Z 00005KT M01/M01 A3045 RMK A01 T10051009  RH  097%=      5-min Rain = 0
KAM1 072246Z 00005KT M01/M01 A3045 RMK A01 T10051009  RH  097%=      5-min Rain = 0
KAM1 072247Z 36005KT M01/M01 A3045 RMK A01 T10051009  RH  097%=      5-min Rain = 0
KAM1 072248Z 36005KT M01/M01 A3045 RMK A01 T10051010  RH  097%=      5-min Rain = 0
KAM1 072249Z 35005KT M01/M01 A3045 RMK A01 T10051010  RH  097%=      5-min Rain = 0
KAM1 072250Z 35005KT M01/M01 A3045 RMK A01 T10051010  RH  097%=      5-min Rain = 0
KAM1 072251Z 35004KT M01/M01 A3045 RMK A01 T10051010  RH  096%=      5-min Rain = 0
KAM1 072252Z 35004KT M01/M01 A3045 RMK A01 T10051010  RH  097%=      5-min Rain = 0
KAM1 072253Z 36003KT M01/M01 A3045 RMK A01 T10051009  RH  097%=      5-min Rain = 0
KAM1 072254Z 01003KT M00/M01 A3045 RMK A01 T10041007  RH  098%=      5-min Rain = 0
KAM1 072255Z 01004KT M00/M01 A3045 RMK A01 T10041006  RH  099%=      5-min Rain = 0
KAM1 072256Z 00005KT M00/M01 A3045 RMK A01 T10041007  RH  098%=      5-min Rain = 0
KAM1 072257Z 36004KT M00/M01 A3045 RMK A01 T10041007  RH  098%=      5-min Rain = 0
KAM1 072258Z 36005KT M00/M01 A3045 RMK A01 T10041008  RH  097%=      5-min Rain = 0
KAM1 072259Z 00003KT M00/M01 A3045 RMK A01 T10041008  RH  097%=      5-min Rain = 0
KAM1 072300Z 36003KT M00/M01 A3045 RMK A01 T10041006  RH  098%=      5-min Rain = 0
KAM1 072301Z 01005KT M00/M01 A3045 RMK A01 T10041006  RH  098%=      5-min Rain = 0
KAM1 072302Z 00004KT M00/M01 A3045 RMK A01 T10041007  RH  098%=      5-min Rain = 0
KAM1 072303Z 01004KT M00/M01 A3045 RMK A01 T10041007  RH  098%=      5-min Rain = 0
KAM1 072304Z 01004KT M00/M01 A3045 RMK A01 T10041007  RH  097%=      5-min Rain = 0
KAM1 072305Z 36004KT M00/M01 A3045 RMK A01 T10041007  RH  098%=      5-min Rain = 0
KAM1 072306Z 01003KT M00/M01 A3045 RMK A01 T10041007  RH  098%=      5-min Rain = 0
KAM1 072307Z 01004KT M00/M01 A3045 RMK A01 T10041007  RH  098%=      5-min Rain = 0
KAM1 072308Z 01004KT M00/M01 A3045 RMK A01 T10041009  RH  097%=      5-min Rain = 0
KAM1 072309Z 00004KT M00/M01 A3045 RMK A01 T10041009  RH  096%=      5-min Rain = 0
KAM1 072310Z 00004KT M00/M01 A3045 RMK A01 T10041009  RH  096%=      5-min Rain = 0
KAM1 072311Z 01004KT M00/M01 A3045 RMK A01 T10041009  RH  096%=      5-min Rain = 0
KAM1 072312Z 01004KT M00/M01 A3045 RMK A01 T10041009  RH  096%=      5-min Rain = 0
KAM1 072313Z 36004KT M00/M01 A3045 RMK A01 T10041009  RH  096%=      5-min Rain = 0
KAM1 072314Z 36004KT M00/M01 A3045 RMK A01 T10041009  RH  096%=      5-min Rain = 0
KAM1 072315Z 36004KT M00/M01 A3045 RMK A01 T10031009  RH  096%=      5-min Rain = 0
KAM1 072316Z 00004KT M00/M01 A3045 RMK A01 T10031008  RH  097%=      5-min Rain = 0
KAM1 072317Z 00004KT M00/M01 A3045 RMK A01 T10031008  RH  096%=      5-min Rain = 0
KAM1 072318Z 35003KT M00/M01 A3045 RMK A01 T10031008  RH  096%=      5-min Rain = 0
KAM1 072319Z 35004KT M00/M01 A3045 RMK A01 T10031007  RH  097%=      5-min Rain = 0
KAM1 072320Z 35004KT M00/M01 A3045 RMK A01 T10031008  RH  097%=      5-min Rain = 0
KAM1 072321Z 36004KT M00/M01 A3045 RMK A01 T10031009  RH  096%=      5-min Rain = 0
KAM1 072322Z 36004KT M00/M01 A3045 RMK A01 T10031009  RH  096%=      5-min Rain = 0
KAM1 072323Z 36003KT M00/M01 A3045 RMK A01 T10031009  RH  096%=      5-min Rain = 0
KAM1 072324Z 36003KT M00/M01 A3045 RMK A01 T10031007  RH  097%=      5-min Rain = 0
KAM1 072325Z 35004KT M00/M01 A3045 RMK A01 T10031006  RH  098%=      5-min Rain = 0
KAM1 072326Z 35004KT M00/M01 A3045 RMK A01 T10031006  RH  098%=      5-min Rain = 0
KAM1 072327Z 36004KT M00/M01 A3045 RMK A01 T10031006  RH  098%=      5-min Rain = 0
KAM1 072328Z 36004KT M00/M01 A3045 RMK A01 T10031008  RH  097%=      5-min Rain = 0
KAM1 072329Z 00004KT M00/M01 A3045 RMK A01 T10031008  RH  096%=      5-min Rain = 0
KAM1 072330Z 36004KT M00/M01 A3045 RMK A01 T10031008  RH  096%=      5-min Rain = 0
KAM1 072331Z 36004KT M00/M01 A3045 RMK A01 T10031008  RH  096%=      5-min Rain = 0
KAM1 072332Z 36003KT M00/M01 A3045 RMK A01 T10031008  RH  096%=      5-min Rain = 0
KAM1 072333Z 35003KT M00/M01 A3045 RMK A01 T10031007  RH  097%=      5-min Rain = 0
KAM1 072334Z 35003KT M00/M01 A3045 RMK A01 T10021005  RH  098%=      5-min Rain = 0
KAM1 072335Z 35003KT M00/M00 A3045 RMK A01 T10021004  RH  099%=      5-min Rain = 0
KAM1 072336Z 34003KT M00/M00 A3045 RMK A01 T10021003  RH  099%=      5-min Rain = 0
KAM1 072337Z 35003KT M00/M00 A3045 RMK A01 T10021003  RH  100%=      5-min Rain = 0
KAM1 072338Z 35003KT M00/M00 A3045 RMK A01 T10021003  RH  100%=      5-min Rain = 0
KAM1 072339Z 35003KT M00/M00 A3045 RMK A01 T10021003  RH  100%=      5-min Rain = 0
KAM1 072340Z 36003KT M00/M00 A3045 RMK A01 T10021003  RH  100%=      5-min Rain = 0
KAM1 072341Z 35003KT M00/M00 A3045 RMK A01 T10021003  RH  100%=      5-min Rain = 0
KAM1 072342Z 35003KT M00/M00 A3045 RMK A01 T10021002  RH  100%=      5-min Rain = 0
KAM1 072343Z 35003KT M00/M00 A3045 RMK A01 T10021002  RH  100%=      5-min Rain = 0
KAM1 072344Z 35003KT M00/M00 A3045 RMK A01 T10021002  RH  100%=      5-min Rain = 0
KAM1 072345Z 35004KT M00/M00 A3045 RMK A01 T10021002  RH  100%=      5-min Rain = 0
KAM1 072346Z 35004KT M00/M00 A3045 RMK A01 T10021002  RH  100%=      5-min Rain = 0
KAM1 072347Z 35003KT M00/M00 A3045 RMK A01 T10021002  RH  100%=      5-min Rain = 0
KAM1 072348Z 35004KT M00/M00 A3045 RMK A01 T10021002  RH  100%=      5-min Rain = 0
KAM1 072349Z 34004KT M00/M00 A3045 RMK A01 T10021002  RH  100%=      5-min Rain = 0
KAM1 072350Z 34004KT M00/M00 A3045 RMK A01 T10021002  RH  100%=      5-min Rain = 0
KAM1 072351Z 34004KT M00/M00 A3045 RMK A01 T10021002  RH  100%=      5-min Rain = 0
KAM1 072352Z 34004KT M00/M00 A3045 RMK A01 T10021002  RH  100%=      5-min Rain = 0
KAM1 072353Z 34004KT M00/M00 A3045 RMK A01 T10021002  RH  100%=      5-min Rain = 0
KAM1 072354Z 35005KT M00/M00 A3045 RMK A01 T10021003  RH  099%=      5-min Rain = 0
KAM1 072355Z 35004KT M00/M01 A3045 RMK A01 T10021005  RH  098%=      5-min Rain = 0
KAM1 072356Z 34003KT M00/M01 A3045 RMK A01 T10021005  RH  098%=      5-min Rain = 0
KAM1 072357Z 35003KT M00/M00 A3045 RMK A01 T10021004  RH  098%=      5-min Rain = 0
KAM1 072358Z 35003KT M00/M00 A3045 RMK A01 T10021003  RH  099%=      5-min Rain = 0
KAM1 072359Z 35003KT M00/M00 A3045 RMK A01 T10021003  RH  099%=      5-min Rain = 0
KAM1 080000Z 35003KT M00/M00 A3045 RMK A01 T10021004  RH  099%=      5-min Rain = 0
KAM1 080001Z 35003KT M00/M00 A3045 RMK A01 T10021004  RH  099%=      5-min Rain = 0
KAM1 080002Z 35004KT M00/M00 A3045 RMK A01 T10021003  RH  099%=      5-min Rain = 0
KAM1 080003Z 36004KT M00/M00 A3045 RMK A01 T10021003  RH  099%=      5-min Rain = 0
KAM1 080004Z 36003KT M00/M00 A3045 RMK A01 T10021003  RH  099%=      5-min Rain = 0
KAM1 080005Z 36004KT M00/M00 A3045 RMK A01 T10021003  RH  099%=      5-min Rain = 0
KAM1 080006Z 36004KT M00/M00 A3045 RMK A01 T10021004  RH  099%=      5-min Rain = 0
KAM1 080007Z 00004KT M00/M00 A3045 RMK A01 T10021004  RH  098%=      5-min Rain = 0
KAM1 080008Z 36004KT M00/M00 A3045 RMK A01 T10011004  RH  098%=      5-min Rain = 0
KAM1 080009Z 01003KT M00/M01 A3045 RMK A01 T10011005  RH  098%=      5-min Rain = 0
KAM1 080010Z 00003KT M00/M00 A3045 RMK A01 T10011004  RH  098%=      5-min Rain = 0
KAM1 080011Z 01004KT M00/M00 A3045 RMK A01 T10011003  RH  098%=      5-min Rain = 0
KAM1 080012Z 01004KT M00/M00 A3045 RMK A01 T10011004  RH  098%=      5-min Rain = 0
KAM1 080013Z 01004KT M00/M01 A3045 RMK A01 T10011005  RH  097%=      5-min Rain = 0
KAM1 080014Z 01003KT M00/M01 A3045 RMK A01 T10011005  RH  097%=      5-min Rain = 0
KAM1 080015Z 01003KT 00/01 A3045 RMK A01 T00-000-5  RH  097%=      5-min Rain = 0
KAM1 080016Z 01003KT 00/00 A3045 RMK A01 T00-000-4  RH  098%=      5-min Rain = 0
KAM1 080017Z 01004KT 00/00 A3045 RMK A01 T00-000-3  RH  098%=      5-min Rain = 0
KAM1 080018Z 02004KT M00/M01 A3045 RMK A01 T10011005  RH  097%=      5-min Rain = 0
KAM1 080019Z 01004KT M00/M01 A3045 RMK A01 T10011005  RH  097%=      5-min Rain = 0
KAM1 080020Z 02003KT M00/M01 A3045 RMK A01 T10011005  RH  097%=      5-min Rain = 0
KAM1 080021Z 02003KT M00/M01 A3045 RMK A01 T10011005  RH  097%=      5-min Rain = 0
KAM1 080022Z 02004KT M00/M00 A3045 RMK A01 T10011004  RH  097%=      5-min Rain = 0
KAM1 080023Z 01003KT M00/M00 A3045 RMK A01 T10011004  RH  097%=      5-min Rain = 0
KAM1 080024Z 02003KT M00/M00 A3045 RMK A01 T10011004  RH  097%=      5-min Rain = 0
KAM1 080025Z 02004KT M00/M00 A3045 RMK A01 T10011004  RH  098%=      5-min Rain = 0
KAM1 080026Z 02003KT M00/M00 A3045 RMK A01 T10011004  RH  097%=      5-min Rain = 0
KAM1 080027Z 02003KT M00/M00 A3045 RMK A01 T10011004  RH  098%=      5-min Rain = 0
KAM1 080028Z 02004KT 00/00 A3045 RMK A01 T00-000-3  RH  098%=      5-min Rain = 0
KAM1 080029Z 02003KT M00/M00 A3045 RMK A01 T10011003  RH  098%=      5-min Rain = 0
KAM1 080030Z 02003KT M00/M00 A3045 RMK A01 T10011002  RH  099%=      5-min Rain = 0
KAM1 080031Z 02003KT M00/M00 A3045 RMK A01 T10011002  RH  099%=      5-min Rain = 0
KAM1 080032Z 02003KT 00/00 A3045 RMK A01 T00-000-2  RH  099%=      5-min Rain = 0
KAM1 080033Z 01003KT 00/00 A3045 RMK A01 T00-000-1  RH  099%=      5-min Rain = 0
KAM1 080034Z 01003KT 00/00 A3045 RMK A01 T00-000-1  RH  099%=      5-min Rain = 0
KAM1 080035Z 01003KT 00/00 A3045 RMK A01 T00-000-1  RH  099%=      5-min Rain = 0
KAM1 080036Z 01003KT 00/00 A3045 RMK A01 T00-000-1  RH  100%=      5-min Rain = 0
KAM1 080037Z 01003KT 00/00 A3046 RMK A01 T00-000-1  RH  100%=      5-min Rain = 0
KAM1 080038Z 01002KT 00/00 A3046 RMK A01 T000000-0  RH  100%=      5-min Rain = 0
KAM1 080039Z 01003KT 00/00 A3046 RMK A01 T00-000-1  RH  099%=      5-min Rain = 0
KAM1 080040Z 01002KT 00/00 A3046 RMK A01 T00-000-1  RH  099%=      5-min Rain = 0
KAM1 080041Z 00002KT 00/00 A3046 RMK A01 T000000-1  RH  100%=      5-min Rain = 0
KAM1 080042Z 00002KT 00/00 A3046 RMK A01 T000000-0  RH  100%=      5-min Rain = 0
KAM1 080043Z 01002KT 00/00 A3046 RMK A01 T000000-1  RH  099%=      5-min Rain = 0
KAM1 080044Z 35002KT 00/M00 A3046 RMK A01 T00011001  RH  099%=      5-min Rain = 0
KAM1 080045Z 36002KT 00/00 A3046 RMK A01 T000000-1  RH  099%=      5-min Rain = 0
KAM1 080046Z 36001KT 00/00 A3046 RMK A01 T000000-1  RH  099%=      5-min Rain = 0
KAM1 080047Z 00002KT 00/00 A3046 RMK A01 T000000-1  RH  099%=      5-min Rain = 0
KAM1 080048Z 01002KT 00/M00 A3046 RMK A01 T00011001  RH  099%=      5-min Rain = 0
KAM1 080049Z 01002KT 00/M00 A3046 RMK A01 T00011001  RH  099%=      5-min Rain = 0
KAM1 080050Z 01002KT 00/M00 A3046 RMK A01 T00011001  RH  099%=      5-min Rain = 0
KAM1 080051Z 01002KT 00/M00 A3046 RMK A01 T00011002  RH  098%=      5-min Rain = 0
KAM1 080052Z 02002KT 00/00 A3046 RMK A01 T000000-3  RH  098%=      5-min Rain = 0
KAM1 080053Z 02002KT 00/00 A3046 RMK A01 T000000-4  RH  097%=      5-min Rain = 0
KAM1 080054Z 03002KT 00/M00 A3046 RMK A01 T00011004  RH  096%=      5-min Rain = 0
KAM1 080055Z 02003KT 00/M00 A3046 RMK A01 T00011004  RH  096%=      5-min Rain = 0
KAM1 080056Z 02003KT 00/M01 A3046 RMK A01 T00011006  RH  095%=      5-min Rain = 0
KAM1 080057Z 02003KT 00/M01 A3046 RMK A01 T00011008  RH  094%=      5-min Rain = 0
KAM1 080058Z 02003KT 00/M01 A3046 RMK A01 T00011007  RH  094%=      5-min Rain = 0
KAM1 080059Z 02002KT 00/M01 A3046 RMK A01 T00011005  RH  096%=      5-min Rain = 0
KAM1 080100Z 02003KT 00/M00 A3046 RMK A01 T00011004  RH  096%=      5-min Rain = 0
KAM1 080101Z 02003KT 00/M01 A3046 RMK A01 T00011005  RH  096%=      5-min Rain = 0
KAM1 080102Z 02002KT 00/M01 A3046 RMK A01 T00011005  RH  096%=      5-min Rain = 0
KAM1 080103Z 02002KT 00/M00 A3046 RMK A01 T00011004  RH  097%=      5-min Rain = 0
KAM1 080104Z 02002KT 00/M00 A3046 RMK A01 T00011004  RH  097%=      5-min Rain = 0
KAM1 080105Z 02002KT 00/M00 A3046 RMK A01 T00011004  RH  097%=      5-min Rain = 0
KAM1 080106Z 01002KT 00/M00 A3046 RMK A01 T00011003  RH  097%=      5-min Rain = 0
KAM1 080107Z 02002KT 00/M00 A3046 RMK A01 T00011003  RH  097%=      5-min Rain = 0
KAM1 080108Z 01002KT 00/M00 A3046 RMK A01 T00011003  RH  097%=      5-min Rain = 0
KAM1 080109Z 01002KT 00/M00 A3046 RMK A01 T00011004  RH  097%=      5-min Rain = 0
KAM1 080110Z 02002KT 00/M00 A3046 RMK A01 T00011004  RH  097%=      5-min Rain = 0
KAM1 080111Z 02002KT 00/M00 A3046 RMK A01 T00011003  RH  097%=      5-min Rain = 0
KAM1 080112Z 02003KT 00/M00 A3046 RMK A01 T00011003  RH  097%=      5-min Rain = 0
KAM1 080113Z 02002KT 00/M00 A3046 RMK A01 T00011003  RH  097%=      5-min Rain = 0
KAM1 080114Z 02002KT 00/M00 A3046 RMK A01 T00011004  RH  097%=      5-min Rain = 0
KAM1 080115Z 03002KT 00/M00 A3046 RMK A01 T00011004  RH  097%=      5-min Rain = 0
KAM1 080116Z 03002KT 00/M00 A3045 RMK A01 T00011003  RH  097%=      5-min Rain = 0
KAM1 080117Z 03002KT 00/M00 A3045 RMK A01 T00011003  RH  097%=      5-min Rain = 0
KAM1 080118Z 03002KT 00/M00 A3045 RMK A01 T00011003  RH  097%=      5-min Rain = 0
KAM1 080119Z 03003KT 00/M00 A3045 RMK A01 T00011003  RH  098%=      5-min Rain = 0
KAM1 080120Z 03002KT 00/M00 A3045 RMK A01 T00011003  RH  097%=      5-min Rain = 0
KAM1 080121Z 03003KT 00/M00 A3045 RMK A01 T00011003  RH  097%=      5-min Rain = 0
KAM1 080122Z 04003KT 00/M00 A3045 RMK A01 T00011004  RH  097%=      5-min Rain = 0
KAM1 080123Z 04002KT 00/M01 A3046 RMK A01 T00011005  RH  096%=      5-min Rain = 0
KAM1 080124Z 04002KT 00/M01 A3045 RMK A01 T00011005  RH  096%=      5-min Rain = 0
KAM1 080125Z 04002KT 00/M00 A3045 RMK A01 T00011004  RH  096%=      5-min Rain = 0
KAM1 080126Z 03002KT 00/M00 A3045 RMK A01 T00011003  RH  097%=      5-min Rain = 0
KAM1 080127Z 04002KT 00/M00 A3045 RMK A01 T00011002  RH  097%=      5-min Rain = 0
KAM1 080128Z 03002KT 00/M00 A3045 RMK A01 T00011002  RH  098%=      5-min Rain = 0
KAM1 080129Z 03002KT 00/M00 A3045 RMK A01 T00011002  RH  098%=      5-min Rain = 0
KAM1 080130Z 04003KT 00/M00 A3045 RMK A01 T00011002  RH  098%=      5-min Rain = 0
KAM1 080131Z 03002KT 00/M00 A3045 RMK A01 T00011002  RH  098%=      5-min Rain = 0
KAM1 080132Z 02002KT 00/M00 A3046 RMK A01 T00011001  RH  098%=      5-min Rain = 0
KAM1 080133Z 02002KT 00/M00 A3046 RMK A01 T00011001  RH  098%=      5-min Rain = 0
KAM1 080134Z 01002KT 00/M00 A3046 RMK A01 T00011001  RH  098%=      5-min Rain = 0
KAM1 080135Z 01002KT 00/M00 A3046 RMK A01 T00011001  RH  098%=      5-min Rain = 0
KAM1 080136Z 02002KT 00/M00 A3046 RMK A01 T00021002  RH  098%=      5-min Rain = 0
KAM1 080137Z 03002KT 00/M00 A3046 RMK A01 T00011002  RH  098%=      5-min Rain = 0
KAM1 080138Z 02002KT 00/M00 A3046 RMK A01 T00011002  RH  098%=      5-min Rain = 0
KAM1 080139Z 02002KT 00/M00 A3046 RMK A01 T00011003  RH  097%=      5-min Rain = 0
KAM1 080140Z 02002KT 00/M00 A3046 RMK A01 T00011002  RH  098%=      5-min Rain = 0
KAM1 080141Z 03002KT 00/M00 A3046 RMK A01 T00011001  RH  098%=      5-min Rain = 0
KAM1 080142Z 02002KT 00/00 A3046 RMK A01 T000100-0  RH  099%=      5-min Rain = 0
KAM1 080143Z 02002KT 00/00 A3045 RMK A01 T000100-0  RH  099%=      5-min Rain = 0
KAM1 080144Z 02002KT 00/00 A3045 RMK A01 T00020000  RH  099%=      5-min Rain = 0
KAM1 080145Z 02002KT 00/00 A3045 RMK A01 T000100-0  RH  099%=      5-min Rain = 0
KAM1 080146Z 02002KT 00/00 A3045 RMK A01 T00020000  RH  099%=      5-min Rain = 0
KAM1 080147Z 01002KT 00/00 A3046 RMK A01 T00010001  RH  100%=      5-min Rain = 0
KAM1 080148Z 02002KT 00/00 A3046 RMK A01 T00010000  RH  099%=      5-min Rain = 0
KAM1 080149Z 01002KT 00/00 A3046 RMK A01 T000100-0  RH  099%=      5-min Rain = 0
KAM1 080150Z 01002KT 00/00 A3046 RMK A01 T00020000  RH  099%=      5-min Rain = 0
KAM1 080151Z 00002KT 00/00 A3046 RMK A01 T00020000  RH  099%=      5-min Rain = 0
KAM1 080152Z 36002KT 00/00 A3046 RMK A01 T00020001  RH  099%=      5-min Rain = 0
KAM1 080153Z 00002KT 00/00 A3046 RMK A01 T000200-0  RH  099%=      5-min Rain = 0
KAM1 080154Z 00002KT 00/M00 A3046 RMK A01 T00021001  RH  098%=      5-min Rain = 0
KAM1 080155Z 01002KT 00/M00 A3046 RMK A01 T00021002  RH  097%=      5-min Rain = 0
KAM1 080156Z 01001KT 00/M00 A3046 RMK A01 T00021001  RH  098%=      5-min Rain = 0
KAM1 080157Z 00001KT 00/M00 A3046 RMK A01 T00021001  RH  098%=      5-min Rain = 0
KAM1 080158Z 35001KT 00/M00 A3046 RMK A01 T00021001  RH  098%=      5-min Rain = 0
KAM1 080159Z 35001KT 00/00 A3046 RMK A01 T000200-0  RH  099%=      5-min Rain = 0
KAM1 080200Z 35001KT 00/00 A3046 RMK A01 T00020001  RH  099%=      5-min Rain = 0
KAM1 080201Z 35001KT 00/00 A3046 RMK A01 T00020001  RH  099%=      5-min Rain = 0
KAM1 080202Z 34001KT 00/00 A3046 RMK A01 T00020001  RH  099%=      5-min Rain = 0
KAM1 080203Z 34001KT 00/00 A3046 RMK A01 T00020001  RH  099%=      5-min Rain = 0
KAM1 080204Z 33001KT 00/00 A3046 RMK A01 T00020000  RH  099%=      5-min Rain = 0
KAM1 080205Z 33001KT 00/M00 A3046 RMK A01 T00021001  RH  098%=      5-min Rain = 0
KAM1 080206Z 33001KT 00/M00 A3046 RMK A01 T00021001  RH  098%=      5-min Rain = 0
KAM1 080207Z 34001KT 00/M00 A3046 RMK A01 T00021001  RH  098%=      5-min Rain = 0
KAM1 080208Z 34001KT 00/M00 A3046 RMK A01 T00021003  RH  096%=      5-min Rain = 0
KAM1 080209Z 32001KT 00/M01 A3046 RMK A01 T00021005  RH  095%=      5-min Rain = 0
KAM1 080210Z 32001KT 00/M00 A3046 RMK A01 T00031003  RH  096%=      5-min Rain = 0
KAM1 080211Z 32001KT 00/M00 A3046 RMK A01 T00031002  RH  097%=      5-min Rain = 0
KAM1 080212Z 33001KT 00/M00 A3046 RMK A01 T00031001  RH  097%=      5-min Rain = 0
KAM1 080213Z 32000KT 00/00 A3046 RMK A01 T00030000  RH  098%=      5-min Rain = 0
KAM1 080214Z 32000KT 00/M00 A3046 RMK A01 T00031001  RH  097%=      5-min Rain = 0
KAM1 080215Z 32000KT 00/M00 A3046 RMK A01 T00031001  RH  097%=      5-min Rain = 0
KAM1 080216Z 00000KT 00/M00 A3046 RMK A01 T00031001  RH  097%=      5-min Rain = 0
KAM1 080217Z 00000KT 00/00 A3046 RMK A01 T000300-0  RH  098%=      5-min Rain = 0
KAM1 080218Z 00000KT 00/00 A3046 RMK A01 T00030000  RH  098%=      5-min Rain = 0
KAM1 080219Z 00000KT 00/00 A3046 RMK A01 T00030001  RH  098%=      5-min Rain = 0
KAM1 080220Z 00000KT 00/00 A3046 RMK A01 T00030001  RH  098%=      5-min Rain = 0
KAM1 080221Z 00000KT 00/00 A3046 RMK A01 T000300-0  RH  098%=      5-min Rain = 0
KAM1 080222Z 00000KT 00/M00 A3046 RMK A01 T00031001  RH  098%=      5-min Rain = 0
KAM1 080223Z 00000KT 00/00 A3046 RMK A01 T00030000  RH  098%=      5-min Rain = 0
KAM1 080224Z 00000KT 00/00 A3046 RMK A01 T00030001  RH  098%=      5-min Rain = 0
KAM1 080225Z 00000KT 00/00 A3046 RMK A01 T00040002  RH  099%=      5-min Rain = 0
KAM1 080226Z 33001KT 00/00 A3046 RMK A01 T00040001  RH  098%=      5-min Rain = 0
KAM1 080227Z 33001KT 00/M00 A3046 RMK A01 T00041001  RH  097%=      5-min Rain = 0
KAM1 080228Z 33001KT 00/M00 A3046 RMK A01 T00041001  RH  097%=      5-min Rain = 0
KAM1 080229Z 33001KT 00/00 A3047 RMK A01 T00040000  RH  098%=      5-min Rain = 0
KAM1 080230Z 33002KT 00/00 A3047 RMK A01 T00040000  RH  098%=      5-min Rain = 0
KAM1 080231Z 33002KT 00/00 A3047 RMK A01 T000400-0  RH  097%=      5-min Rain = 0
KAM1 080232Z 33002KT 00/M00 A3047 RMK A01 T00041001  RH  096%=      5-min Rain = 0
KAM1 080233Z 34002KT 00/M00 A3047 RMK A01 T00041001  RH  096%=      5-min Rain = 0
KAM1 080234Z 35001KT 00/00 A3047 RMK A01 T000400-0  RH  097%=      5-min Rain = 0
KAM1 080235Z 34001KT 00/00 A3047 RMK A01 T00040000  RH  098%=      5-min Rain = 0
KAM1 080236Z 35001KT 00/00 A3047 RMK A01 T00040001  RH  098%=      5-min Rain = 0
KAM1 080237Z 35001KT 00/00 A3047 RMK A01 T00040002  RH  099%=      5-min Rain = 0
KAM1 080238Z 34001KT 00/00 A3047 RMK A01 T00040002  RH  099%=      5-min Rain = 0
KAM1 080239Z 33001KT 00/00 A3047 RMK A01 T00040002  RH  099%=      5-min Rain = 0
KAM1 080240Z 35001KT 00/00 A3047 RMK A01 T00040002  RH  099%=      5-min Rain = 0
KAM1 080241Z 35001KT 00/00 A3047 RMK A01 T00040002  RH  099%=      5-min Rain = 0
KAM1 080242Z 35001KT 00/00 A3047 RMK A01 T00040001  RH  098%=      5-min Rain = 0
KAM1 080243Z 35002KT 00/00 A3047 RMK A01 T00040000  RH  098%=      5-min Rain = 0
KAM1 080244Z 35002KT 00/00 A3047 RMK A01 T00040001  RH  098%=      5-min Rain = 0
KAM1 080245Z 35002KT 00/00 A3047 RMK A01 T00040002  RH  098%=      5-min Rain = 0
KAM1 080246Z 35001KT 00/00 A3047 RMK A01 T00040001  RH  098%=      5-min Rain = 0
KAM1 080247Z 34001KT 00/00 A3047 RMK A01 T00040002  RH  098%=      5-min Rain = 0
KAM1 080248Z 34001KT 00/00 A3047 RMK A01 T00040001  RH  098%=      5-min Rain = 0
KAM1 080249Z 35001KT 00/00 A3047 RMK A01 T00040002  RH  098%=      5-min Rain = 0
KAM1 080250Z 35001KT 00/00 A3047 RMK A01 T00040002  RH  098%=      5-min Rain = 0
KAM1 080251Z 00000KT 00/00 A3047 RMK A01 T00040001  RH  098%=      5-min Rain = 0
KAM1 080252Z 00001KT 00/00 A3047 RMK A01 T00040001  RH  098%=      5-min Rain = 0
KAM1 080253Z 00001KT 00/00 A3047 RMK A01 T00040001  RH  098%=      5-min Rain = 0
KAM1 080254Z 01001KT 00/M00 A3047 RMK A01 T00041001  RH  097%=      5-min Rain = 0
KAM1 080255Z 00001KT 00/M00 A3047 RMK A01 T00041002  RH  095%=      5-min Rain = 0
KAM1 080256Z 01001KT 00/M00 A3047 RMK A01 T00041003  RH  095%=      5-min Rain = 0
KAM1 080257Z 01001KT 00/M00 A3047 RMK A01 T00041002  RH  096%=      5-min Rain = 0
KAM1 080258Z 01001KT 00/M00 A3047 RMK A01 T00041001  RH  096%=      5-min Rain = 0
KAM1 080259Z 01001KT 01/00 A3047 RMK A01 T000500-0  RH  097%=      5-min Rain = 0
KAM1 080300Z 01001KT 01/00 A3047 RMK A01 T000500-0  RH  097%=      5-min Rain = 0
KAM1 080301Z 01001KT 00/00 A3047 RMK A01 T000400-0  RH  097%=      5-min Rain = 0
KAM1 080302Z 01001KT 01/00 A3047 RMK A01 T00050000  RH  097%=      5-min Rain = 0
KAM1 080303Z 01001KT 01/00 A3047 RMK A01 T00050001  RH  098%=      5-min Rain = 0
KAM1 080304Z 01001KT 01/00 A3047 RMK A01 T00050002  RH  098%=      5-min Rain = 0
KAM1 080305Z 01001KT 01/00 A3047 RMK A01 T00050002  RH  099%=      5-min Rain = 0
KAM1 080306Z 01001KT 01/00 A3047 RMK A01 T00050004  RH  099%=      5-min Rain = 0
KAM1 080307Z 01001KT 01/00 A3047 RMK A01 T00050004  RH  100%=      5-min Rain = 0
KAM1 080308Z 01001KT 01/00 A3047 RMK A01 T00050004  RH  100%=      5-min Rain = 0
KAM1 080309Z 01001KT 01/00 A3047 RMK A01 T00050004  RH  099%=      5-min Rain = 0
KAM1 080310Z 01001KT 01/00 A3047 RMK A01 T00050004  RH  100%=      5-min Rain = 0
KAM1 080311Z 01001KT 00/00 A3047 RMK A01 T00040004  RH  100%=      5-min Rain = 0
KAM1 080312Z 02001KT 01/00 A3047 RMK A01 T00050004  RH  100%=      5-min Rain = 0
KAM1 080313Z 02001KT 01/01 A3047 RMK A01 T00050005  RH  100%=      5-min Rain = 0
KAM1 080314Z 02001KT 01/01 A3047 RMK A01 T00050005  RH  100%=      5-min Rain = 0
KAM1 080315Z 02001KT 01/00 A3047 RMK A01 T00050004  RH  099%=      5-min Rain = 0
KAM1 080316Z 01001KT 01/00 A3047 RMK A01 T00050002  RH  098%=      5-min Rain = 0
KAM1 080317Z 01001KT 01/00 A3047 RMK A01 T00050001  RH  097%=      5-min Rain = 0
KAM1 080318Z 01000KT 01/00 A3047 RMK A01 T00050003  RH  098%=      5-min Rain = 0
KAM1 080319Z 02000KT 01/00 A3047 RMK A01 T00050003  RH  099%=      5-min Rain = 0
KAM1 080320Z 00000KT 01/00 A3047 RMK A01 T00050004  RH  099%=      5-min Rain = 0
KAM1 080321Z 00000KT 01/00 A3047 RMK A01 T00050004  RH  100%=      5-min Rain = 0
KAM1 080322Z 00000KT 01/01 A3047 RMK A01 T00050005  RH  100%=      5-min Rain = 0
KAM1 080323Z 00000KT 01/00 A3047 RMK A01 T00050004  RH  099%=      5-min Rain = 0
KAM1 080324Z 00000KT 01/00 A3047 RMK A01 T00050003  RH  099%=      5-min Rain = 0
KAM1 080325Z 00000KT 01/00 A3047 RMK A01 T00050001  RH  098%=      5-min Rain = 0
KAM1 080326Z 00000KT 01/00 A3047 RMK A01 T00050000  RH  097%=      5-min Rain = 0
KAM1 080327Z 00000KT 01/00 A3047 RMK A01 T00050000  RH  097%=      5-min Rain = 0
KAM1 080328Z 00000KT 01/00 A3047 RMK A01 T00050001  RH  097%=      5-min Rain = 0
KAM1 080329Z 00000KT 01/00 A3047 RMK A01 T000600-0  RH  096%=      5-min Rain = 0
KAM1 080330Z 00000KT 01/M00 A3047 RMK A01 T00061001  RH  095%=      5-min Rain = 0
KAM1 080331Z 00000KT 01/00 A3047 RMK A01 T000600-0  RH  095%=      5-min Rain = 0
KAM1 080332Z 00000KT 01/00 A3047 RMK A01 T00060001  RH  096%=      5-min Rain = 0
KAM1 080333Z 00000KT 01/00 A3047 RMK A01 T00070001  RH  096%=      5-min Rain = 0
KAM1 080334Z 00000KT 01/00 A3047 RMK A01 T00060001  RH  096%=      5-min Rain = 0
KAM1 080335Z 00000KT 01/00 A3047 RMK A01 T00060001  RH  096%=      5-min Rain = 0
KAM1 080336Z 00000KT 01/00 A3047 RMK A01 T00060001  RH  096%=      5-min Rain = 0
KAM1 080337Z 00000KT 01/00 A3047 RMK A01 T00060001  RH  097%=      5-min Rain = 0
KAM1 080338Z 00000KT 01/00 A3047 RMK A01 T00070002  RH  097%=      5-min Rain = 0
KAM1 080339Z 00000KT 01/00 A3047 RMK A01 T00070003  RH  098%=      5-min Rain = 0
KAM1 080340Z 00000KT 01/00 A3047 RMK A01 T00060004  RH  098%=      5-min Rain = 0
KAM1 080341Z 03000KT 01/00 A3047 RMK A01 T00060004  RH  099%=      5-min Rain = 0
KAM1 080342Z 02001KT 01/00 A3047 RMK A01 T00060002  RH  097%=      5-min Rain = 0
KAM1 080343Z 02001KT 01/00 A3047 RMK A01 T00060000  RH  096%=      5-min Rain = 0
KAM1 080344Z 01001KT 01/00 A3047 RMK A01 T00060001  RH  097%=      5-min Rain = 0
KAM1 080345Z 01001KT 01/00 A3047 RMK A01 T00060000  RH  096%=      5-min Rain = 0
KAM1 080346Z 01001KT 01/00 A3047 RMK A01 T00060001  RH  096%=      5-min Rain = 0
KAM1 080347Z 02000KT 01/00 A3047 RMK A01 T00060002  RH  097%=      5-min Rain = 0
KAM1 080348Z 00000KT 01/00 A3047 RMK A01 T00060003  RH  098%=      5-min Rain = 0
KAM1 080349Z 00000KT 01/00 A3047 RMK A01 T00060004  RH  099%=      5-min Rain = 0
KAM1 080350Z 00000KT 01/01 A3047 RMK A01 T00060005  RH  099%=      5-min Rain = 0
KAM1 080351Z 00000KT 01/00 A3047 RMK A01 T00060004  RH  099%=      5-min Rain = 0
KAM1 080352Z 00000KT 01/00 A3047 RMK A01 T00060004  RH  099%=      5-min Rain = 0
KAM1 080353Z 00000KT 01/01 A3047 RMK A01 T00060005  RH  099%=      5-min Rain = 0
KAM1 080354Z 00000KT 01/01 A3047 RMK A01 T00070006  RH  100%=      5-min Rain = 0
KAM1 080355Z 00000KT 01/01 A3047 RMK A01 T00070005  RH  099%=      5-min Rain = 0
KAM1 080356Z 00000KT 01/00 A3047 RMK A01 T00070004  RH  098%=      5-min Rain = 0
KAM1 080357Z 00000KT 01/00 A3047 RMK A01 T00070003  RH  097%=      5-min Rain = 0
KAM1 080358Z 00000KT 01/00 A3047 RMK A01 T00070000  RH  096%=      5-min Rain = 0
KAM1 080359Z 00000KT 01/00 A3047 RMK A01 T00070001  RH  096%=      5-min Rain = 0
KAM1 080400Z 00000KT 01/00 A3047 RMK A01 T00070001  RH  096%=      5-min Rain = 0
KAM1 080401Z 00000KT 01/00 A3047 RMK A01 T00070000  RH  095%=      5-min Rain = 0
KAM1 080402Z 00000KT 01/00 A3047 RMK A01 T00070000  RH  095%=      5-min Rain = 0
KAM1 080403Z 00000KT 01/00 A3047 RMK A01 T00080004  RH  097%=      5-min Rain = 0
KAM1 080404Z 00000KT 01/01 A3047 RMK A01 T00080005  RH  098%=      5-min Rain = 0
KAM1 080405Z 00000KT 01/01 A3047 RMK A01 T00080005  RH  098%=      5-min Rain = 0
KAM1 080406Z 00000KT 01/01 A3047 RMK A01 T00080005  RH  098%=      5-min Rain = 0
KAM1 080407Z 00000KT 01/01 A3047 RMK A01 T00080006  RH  098%=      5-min Rain = 0
KAM1 080408Z 00000KT 01/01 A3047 RMK A01 T00080006  RH  099%=      5-min Rain = 0
KAM1 080409Z 00000KT 01/01 A3047 RMK A01 T00080006  RH  099%=      5-min Rain = 0
KAM1 080410Z 00000KT 01/01 A3047 RMK A01 T00080006  RH  099%=      5-min Rain = 0
KAM1 080411Z 00000KT 01/01 A3047 RMK A01 T00080005  RH  098%=      5-min Rain = 0
KAM1 080412Z 00000KT 01/01 A3047 RMK A01 T00080006  RH  098%=      5-min Rain = 0
KAM1 080413Z 00000KT 01/01 A3047 RMK A01 T00080006  RH  099%=      5-min Rain = 0
KAM1 080414Z 00000KT 01/01 A3048 RMK A01 T00080006  RH  099%=      5-min Rain = 0
KAM1 080415Z 00000KT 01/01 A3048 RMK A01 T00080005  RH  098%=      5-min Rain = 0
KAM1 080416Z 00000KT 01/01 A3048 RMK A01 T00080005  RH  098%=      5-min Rain = 0
KAM1 080417Z 00000KT 01/01 A3048 RMK A01 T00080006  RH  099%=      5-min Rain = 0
KAM1 080418Z 00000KT 01/01 A3048 RMK A01 T00080007  RH  099%=      5-min Rain = 0
KAM1 080419Z 00000KT 01/01 A3048 RMK A01 T00080007  RH  099%=      5-min Rain = 0
KAM1 080420Z 00000KT 01/01 A3048 RMK A01 T00090006  RH  099%=      5-min Rain = 0
KAM1 080421Z 00000KT 01/01 A3048 RMK A01 T00090005  RH  097%=      5-min Rain = 0
KAM1 080422Z 00000KT 01/00 A3048 RMK A01 T00090003  RH  096%=      5-min Rain = 0
KAM1 080423Z 00000KT 01/00 A3048 RMK A01 T00090003  RH  096%=      5-min Rain = 0
KAM1 080424Z 00000KT 01/00 A3048 RMK A01 T00090002  RH  096%=      5-min Rain = 0
KAM1 080425Z 00000KT 01/00 A3048 RMK A01 T00080002  RH  096%=      5-min Rain = 0
KAM1 080426Z 00000KT 01/00 A3048 RMK A01 T00090002  RH  095%=      5-min Rain = 0
KAM1 080427Z 00000KT 01/00 A3048 RMK A01 T00090002  RH  095%=      5-min Rain = 0
KAM1 080428Z 00000KT 01/00 A3048 RMK A01 T00090003  RH  096%=      5-min Rain = 0
KAM1 080429Z 00000KT 01/00 A3048 RMK A01 T00090004  RH  097%=      5-min Rain = 0
KAM1 080430Z 00000KT 01/00 A3048 RMK A01 T00090004  RH  097%=      5-min Rain = 0
KAM1 080431Z 00000KT 01/00 A3048 RMK A01 T00090004  RH  097%=      5-min Rain = 0
KAM1 080432Z 22001KT 01/00 A3048 RMK A01 T00090004  RH  097%=      5-min Rain = 0
KAM1 080433Z 22001KT 01/01 A3048 RMK A01 T00090005  RH  097%=      5-min Rain = 0
KAM1 080434Z 22001KT 01/00 A3048 RMK A01 T00090004  RH  097%=      5-min Rain = 0
KAM1 080435Z 22001KT 01/00 A3048 RMK A01 T00080001  RH  095%=      5-min Rain = 0
KAM1 080436Z 22001KT 01/00 A3048 RMK A01 T00080001  RH  095%=      5-min Rain = 0
KAM1 080437Z 22001KT 01/00 A3048 RMK A01 T00080001  RH  095%=      5-min Rain = 0
KAM1 080438Z 22001KT 01/00 A3048 RMK A01 T00080001  RH  095%=      5-min Rain = 0
KAM1 080439Z 22001KT 01/00 A3048 RMK A01 T00080001  RH  095%=      5-min Rain = 0
KAM1 080440Z 22001KT 01/00 A3048 RMK A01 T00080001  RH  095%=      5-min Rain = 0
KAM1 080441Z 22001KT 01/00 A3048 RMK A01 T00080003  RH  096%=      5-min Rain = 0
KAM1 080442Z 21001KT 01/00 A3048 RMK A01 T00080004  RH  097%=      5-min Rain = 0
KAM1 080443Z 21001KT 01/00 A3048 RMK A01 T00080004  RH  097%=      5-min Rain = 0
KAM1 080444Z 20001KT 01/00 A3047 RMK A01 T00080004  RH  097%=      5-min Rain = 0
KAM1 080445Z 20001KT 01/00 A3047 RMK A01 T00080004  RH  097%=      5-min Rain = 0
KAM1 080446Z 21001KT 01/00 A3047 RMK A01 T00080004  RH  097%=      5-min Rain = 0
KAM1 080447Z 21001KT 01/00 A3047 RMK A01 T00080003  RH  096%=      5-min Rain = 0
KAM1 080448Z 20001KT 01/00 A3047 RMK A01 T00080001  RH  095%=      5-min Rain = 0
KAM1 080449Z 20001KT 01/00 A3047 RMK A01 T00080000  RH  095%=      5-min Rain = 0
KAM1 080450Z 20001KT 01/00 A3047 RMK A01 T00080001  RH  095%=      5-min Rain = 0
KAM1 080451Z 20000KT 01/00 A3047 RMK A01 T00080001  RH  095%=      5-min Rain = 0
KAM1 080452Z 20001KT 01/00 A3047 RMK A01 T00090002  RH  095%=      5-min Rain = 0
KAM1 080453Z 20000KT 01/00 A3047 RMK A01 T00080002  RH  096%=      5-min Rain = 0.01
KAM1 080454Z 00000KT 01/00 A3047 RMK A01 T00090004  RH  097%=      5-min Rain = 0
KAM1 080455Z 00000KT 01/01 A3047 RMK A01 T00090005  RH  097%=      5-min Rain = 0
KAM1 080456Z 00000KT 01/00 A3047 RMK A01 T00090004  RH  097%=      5-min Rain = 0
KAM1 080457Z 00000KT 01/00 A3047 RMK A01 T00090004  RH  097%=      5-min Rain = 0
KAM1 080458Z 00000KT 01/00 A3047 RMK A01 T00090003  RH  096%=      5-min Rain = 0
KAM1 080459Z 00000KT 01/00 A3047 RMK A01 T00090003  RH  096%=      5-min Rain = 0
KAM1 080500Z 00000KT 01/00 A3047 RMK A01 T00090003  RH  096%=      5-min Rain = 0
KAM1 080501Z 00000KT 01/00 A3047 RMK A01 T00090001  RH  095%=      5-min Rain = 0
KAM1 080502Z 00000KT 01/00 A3046 RMK A01 T000900-0  RH  093%=      5-min Rain = 0
KAM1 080503Z 00000KT 01/M00 A3046 RMK A01 T00091001  RH  093%=      5-min Rain = 0
KAM1 080504Z 00000KT 01/M00 A3046 RMK A01 T00091002  RH  093%=      5-min Rain = 0
KAM1 080505Z 00000KT 01/M00 A3046 RMK A01 T00091002  RH  093%=      5-min Rain = 0
KAM1 080506Z 00000KT 01/00 A3046 RMK A01 T00090000  RH  094%=      5-min Rain = 0
KAM1 080507Z 00000KT 01/00 A3046 RMK A01 T00100002  RH  095%=      5-min Rain = 0
KAM1 080508Z 00000KT 01/00 A3046 RMK A01 T00100003  RH  095%=      5-min Rain = 0
KAM1 080509Z 21000KT 01/00 A3046 RMK A01 T00090003  RH  095%=      5-min Rain = 0
KAM1 080510Z 21001KT 01/00 A3046 RMK A01 T00090002  RH  095%=      5-min Rain = 0
KAM1 080511Z 21001KT 01/00 A3046 RMK A01 T00090001  RH  094%=      5-min Rain = 0
KAM1 080512Z 21001KT 01/00 A3046 RMK A01 T000900-0  RH  093%=      5-min Rain = 0
KAM1 080513Z 20001KT 01/00 A3046 RMK A01 T000900-0  RH  093%=      5-min Rain = 0
KAM1 080514Z 21001KT 01/00 A3046 RMK A01 T00090001  RH  094%=      5-min Rain = 0
KAM1 080515Z 20001KT 01/00 A3046 RMK A01 T00090001  RH  094%=      5-min Rain = 0
KAM1 080516Z 20001KT 01/00 A3046 RMK A01 T00090000  RH  094%=      5-min Rain = 0
KAM1 080517Z 20001KT 01/00 A3046 RMK A01 T00100000  RH  094%=      5-min Rain = 0
KAM1 080518Z 20001KT 01/00 A3046 RMK A01 T00090002  RH  095%=      5-min Rain = 0
KAM1 080519Z 20001KT 01/00 A3046 RMK A01 T00090003  RH  096%=      5-min Rain = 0
KAM1 080520Z 20002KT 01/00 A3046 RMK A01 T00100001  RH  094%=      5-min Rain = 0
KAM1 080521Z 21002KT 01/00 A3046 RMK A01 T000900-0  RH  093%=      5-min Rain = 0
KAM1 080522Z 21002KT 01/M00 A3046 RMK A01 T00091001  RH  093%=      5-min Rain = 0
KAM1 080523Z 21002KT 01/M00 A3046 RMK A01 T00091002  RH  093%=      5-min Rain = 0
KAM1 080524Z 21002KT 01/M00 A3046 RMK A01 T00091001  RH  093%=      5-min Rain = 0
KAM1 080525Z 21002KT 01/00 A3046 RMK A01 T000900-0  RH  093%=      5-min Rain = 0
KAM1 080526Z 21002KT 01/00 A3046 RMK A01 T00090001  RH  094%=      5-min Rain = 0
KAM1 080527Z 20002KT 01/00 A3046 RMK A01 T00090001  RH  095%=      5-min Rain = 0
KAM1 080528Z 20002KT 01/00 A3046 RMK A01 T00090001  RH  094%=      5-min Rain = 0
KAM1 080529Z 21002KT 01/00 A3046 RMK A01 T00090001  RH  094%=      5-min Rain = 0
KAM1 080530Z 20002KT 01/00 A3046 RMK A01 T000900-0  RH  093%=      5-min Rain = 0
KAM1 080531Z 20001KT 01/M00 A3045 RMK A01 T00091002  RH  092%=      5-min Rain = 0
KAM1 080532Z 20001KT 01/M00 A3045 RMK A01 T00091001  RH  093%=      5-min Rain = 0
KAM1 080533Z 19002KT 01/M00 A3045 RMK A01 T00091001  RH  094%=      5-min Rain = 0
KAM1 080534Z 19002KT 01/M00 A3045 RMK A01 T00091001  RH  093%=      5-min Rain = 0
KAM1 080535Z 19001KT 01/M00 A3045 RMK A01 T00091002  RH  093%=      5-min Rain = 0
KAM1 080536Z 19002KT 01/M00 A3045 RMK A01 T00091002  RH  093%=      5-min Rain = 0
KAM1 080537Z 18001KT 01/M01 A3045 RMK A01 T00091005  RH  090%=      5-min Rain = 0
KAM1 080538Z 18001KT 01/M00 A3045 RMK A01 T00091004  RH  091%=      5-min Rain = 0
KAM1 080539Z 18001KT 01/M00 A3045 RMK A01 T00091002  RH  093%=      5-min Rain = 0
KAM1 080540Z 17001KT 01/M00 A3045 RMK A01 T00081001  RH  094%=      5-min Rain = 0
KAM1 080541Z 17001KT 01/00 A3045 RMK A01 T000900-0  RH  094%=      5-min Rain = 0
KAM1 080542Z 18000KT 01/M00 A3045 RMK A01 T00091001  RH  093%=      5-min Rain = 0
KAM1 080543Z 18001KT 01/M00 A3045 RMK A01 T00091001  RH  093%=      5-min Rain = 0
KAM1 080544Z 19001KT 01/00 A3045 RMK A01 T00090001  RH  094%=      5-min Rain = 0
KAM1 080545Z 20001KT 01/00 A3045 RMK A01 T00090001  RH  094%=      5-min Rain = 0
KAM1 080546Z 19000KT 01/00 A3045 RMK A01 T00090001  RH  094%=      5-min Rain = 0
KAM1 080547Z 00000KT 01/M00 A3045 RMK A01 T00091001  RH  093%=      5-min Rain = 0
KAM1 080548Z 00000KT 01/00 A3045 RMK A01 T00090001  RH  094%=      5-min Rain = 0
KAM1 080549Z 22000KT 01/00 A3045 RMK A01 T00100002  RH  095%=      5-min Rain = 0
KAM1 080550Z 23001KT 01/00 A3045 RMK A01 T00100003  RH  095%=      5-min Rain = 0
KAM1 080551Z 23001KT 01/00 A3045 RMK A01 T00090002  RH  094%=      5-min Rain = 0
KAM1 080552Z 23000KT 01/00 A3045 RMK A01 T00100001  RH  094%=      5-min Rain = 0
KAM1 080553Z 00000KT 01/00 A3045 RMK A01 T000900-0  RH  093%=      5-min Rain = 0
KAM1 080554Z 00000KT 01/00 A3045 RMK A01 T001000-0  RH  093%=      5-min Rain = 0
KAM1 080555Z 23000KT 01/00 A3045 RMK A01 T00090001  RH  094%=      5-min Rain = 0
KAM1 080556Z 24001KT 01/00 A3045 RMK A01 T00090001  RH  094%=      5-min Rain = 0
KAM1 080557Z 23001KT 01/M00 A3045 RMK A01 T00091001  RH  093%=      5-min Rain = 0
KAM1 080558Z 23001KT 01/M00 A3045 RMK A01 T00101002  RH  092%=      5-min Rain = 0
KAM1 080559Z 23001KT 01/M00 A3045 RMK A01 T00091004  RH  091%=      5-min Rain = 0

Page generated in 0.0723 seconds.